<?xml version="1.0" encoding="UTF-8" standalone="no" ?>
<gpx xmlns="http://www.topografix.com/GPX/1/1" xmlns:xsi="http://www.w3.org/2001/XMLSchema-instance" xsi:schemaLocation="http://www.topografix.com/GPX/1/1 http://www.topografix.com/GPX/1/1/gpx.xsd" version="1.1" creator="VisuGPX - https://www.visugpx.com">
  <metadata>
    <name>Gr64-laisvik</name>
  </metadata>
  <trk>
    <name><![CDATA[9914511-Gr64]]></name>
    <trkseg>
      <trkpt lat="44.79963" lon="1.61836">
        <ele>155.3</ele>
        <time>2020-06-08T17:35:21Z</time>
      </trkpt>
      <trkpt lat="44.79963" lon="1.61836">
        <ele>155.3</ele>
        <time>2020-06-08T17:35:21Z</time>
      </trkpt>
      <trkpt lat="44.79826" lon="1.61742">
        <ele>144.2</ele>
        <time>2020-06-08T17:36:37Z</time>
      </trkpt>
      <trkpt lat="44.79733" lon="1.61647">
        <ele>146.8</ele>
        <time>2020-06-08T17:37:35Z</time>
      </trkpt>
      <trkpt lat="44.79716" lon="1.61602">
        <ele>148.5</ele>
        <time>2020-06-08T17:37:53Z</time>
      </trkpt>
      <trkpt lat="44.79687" lon="1.61602">
        <ele>153.7</ele>
        <time>2020-06-08T17:38:07Z</time>
      </trkpt>
      <trkpt lat="44.79621" lon="1.61445">
        <ele>159.6</ele>
        <time>2020-06-08T17:39:12Z</time>
      </trkpt>
      <trkpt lat="44.79615" lon="1.61359">
        <ele>162.7</ele>
        <time>2020-06-08T17:39:43Z</time>
      </trkpt>
      <trkpt lat="44.79689" lon="1.61224">
        <ele>153.1</ele>
        <time>2020-06-08T17:40:43Z</time>
      </trkpt>
      <trkpt lat="44.7972" lon="1.61022">
        <ele>149.5</ele>
        <time>2020-06-08T17:41:57Z</time>
      </trkpt>
      <trkpt lat="44.79639" lon="1.60902">
        <ele>149.1</ele>
        <time>2020-06-08T17:42:56Z</time>
      </trkpt>
      <trkpt lat="44.79543" lon="1.60812">
        <ele>158.3</ele>
        <time>2020-06-08T17:43:53Z</time>
      </trkpt>
      <trkpt lat="44.79491" lon="1.60732">
        <ele>175.1</ele>
        <time>2020-06-08T17:44:32Z</time>
      </trkpt>
      <trkpt lat="44.79493" lon="1.60662">
        <ele>178.7</ele>
        <time>2020-06-08T17:44:57Z</time>
      </trkpt>
      <trkpt lat="44.79564" lon="1.60511">
        <ele>151.1</ele>
        <time>2020-06-08T17:46:01Z</time>
      </trkpt>
      <trkpt lat="44.7958" lon="1.60396">
        <ele>139.3</ele>
        <time>2020-06-08T17:46:43Z</time>
      </trkpt>
      <trkpt lat="44.79423" lon="1.60095">
        <ele>165.4</ele>
        <time>2020-06-08T17:48:55Z</time>
      </trkpt>
      <trkpt lat="44.7944" lon="1.59984">
        <ele>170.4</ele>
        <time>2020-06-08T17:49:36Z</time>
      </trkpt>
      <trkpt lat="44.79599" lon="1.59868">
        <ele>143.7</ele>
        <time>2020-06-08T17:51:05Z</time>
      </trkpt>
      <trkpt lat="44.79621" lon="1.59769">
        <ele>146.4</ele>
        <time>2020-06-08T17:51:42Z</time>
      </trkpt>
      <trkpt lat="44.79616" lon="1.59705">
        <ele>146.8</ele>
        <time>2020-06-08T17:52:05Z</time>
      </trkpt>
      <trkpt lat="44.79542" lon="1.59617">
        <ele>144.3</ele>
        <time>2020-06-08T17:52:53Z</time>
      </trkpt>
      <trkpt lat="44.7947" lon="1.59574">
        <ele>142.3</ele>
        <time>2020-06-08T17:53:33Z</time>
      </trkpt>
      <trkpt lat="44.79414" lon="1.59614">
        <ele>166.5</ele>
        <time>2020-06-08T17:54:04Z</time>
      </trkpt>
      <trkpt lat="44.79362" lon="1.59589">
        <ele>183.4</ele>
        <time>2020-06-08T17:54:31Z</time>
      </trkpt>
      <trkpt lat="44.79307" lon="1.59518">
        <ele>184.5</ele>
        <time>2020-06-08T17:55:09Z</time>
      </trkpt>
      <trkpt lat="44.79263" lon="1.59389">
        <ele>167.9</ele>
        <time>2020-06-08T17:56:00Z</time>
      </trkpt>
      <trkpt lat="44.79255" lon="1.59276">
        <ele>148.6</ele>
        <time>2020-06-08T17:56:40Z</time>
      </trkpt>
      <trkpt lat="44.79277" lon="1.5917">
        <ele>141.7</ele>
        <time>2020-06-08T17:57:19Z</time>
      </trkpt>
      <trkpt lat="44.79278" lon="1.59057">
        <ele>134.2</ele>
        <time>2020-06-08T17:57:59Z</time>
      </trkpt>
      <trkpt lat="44.7926" lon="1.58685">
        <ele>129.7</ele>
        <time>2020-06-08T18:00:12Z</time>
      </trkpt>
      <trkpt lat="44.79178" lon="1.58452">
        <ele>123</ele>
        <time>2020-06-08T18:01:44Z</time>
      </trkpt>
      <trkpt lat="44.79164" lon="1.58336">
        <ele>117.5</ele>
        <time>2020-06-08T18:02:26Z</time>
      </trkpt>
      <trkpt lat="44.79188" lon="1.58248">
        <ele>119.4</ele>
        <time>2020-06-08T18:02:59Z</time>
      </trkpt>
      <trkpt lat="44.79162" lon="1.58222">
        <ele>117.5</ele>
        <time>2020-06-08T18:03:15Z</time>
      </trkpt>
      <trkpt lat="44.79137" lon="1.58089">
        <ele>119</ele>
        <time>2020-06-08T18:04:04Z</time>
      </trkpt>
      <trkpt lat="44.79127" lon="1.57894">
        <ele>118.7</ele>
        <time>2020-06-08T18:05:14Z</time>
      </trkpt>
      <trkpt lat="44.79132" lon="1.5781">
        <ele>119.2</ele>
        <time>2020-06-08T18:05:44Z</time>
      </trkpt>
      <trkpt lat="44.79181" lon="1.57628">
        <ele>117.2</ele>
        <time>2020-06-08T18:06:53Z</time>
      </trkpt>
      <trkpt lat="44.79306" lon="1.57443">
        <ele>117.7</ele>
        <time>2020-06-08T18:08:23Z</time>
      </trkpt>
      <trkpt lat="44.79347" lon="1.57316">
        <ele>116.8</ele>
        <time>2020-06-08T18:09:13Z</time>
      </trkpt>
      <trkpt lat="44.7937" lon="1.57276">
        <ele>118.5</ele>
        <time>2020-06-08T18:09:31Z</time>
      </trkpt>
      <trkpt lat="44.79389" lon="1.57218">
        <ele>118.4</ele>
        <time>2020-06-08T18:09:54Z</time>
      </trkpt>
      <trkpt lat="44.79561" lon="1.5701">
        <ele>120.3</ele>
        <time>2020-06-08T18:11:47Z</time>
      </trkpt>
      <trkpt lat="44.79593" lon="1.56919">
        <ele>121.5</ele>
        <time>2020-06-08T18:12:23Z</time>
      </trkpt>
      <trkpt lat="44.79581" lon="1.56812">
        <ele>121.6</ele>
        <time>2020-06-08T18:13:02Z</time>
      </trkpt>
      <trkpt lat="44.79493" lon="1.56731">
        <ele>116.3</ele>
        <time>2020-06-08T18:13:54Z</time>
      </trkpt>
      <trkpt lat="44.79459" lon="1.56662">
        <ele>117.9</ele>
        <time>2020-06-08T18:14:24Z</time>
      </trkpt>
      <trkpt lat="44.79465" lon="1.56615">
        <ele>121.5</ele>
        <time>2020-06-08T18:14:41Z</time>
      </trkpt>
      <trkpt lat="44.7956" lon="1.56531">
        <ele>118.7</ele>
        <time>2020-06-08T18:15:37Z</time>
      </trkpt>
      <trkpt lat="44.79689" lon="1.56364">
        <ele>115.9</ele>
        <time>2020-06-08T18:17:05Z</time>
      </trkpt>
      <trkpt lat="44.7979" lon="1.56149">
        <ele>129</ele>
        <time>2020-06-08T18:18:37Z</time>
      </trkpt>
      <trkpt lat="44.79852" lon="1.56104">
        <ele>120.7</ele>
        <time>2020-06-08T18:19:11Z</time>
      </trkpt>
      <trkpt lat="44.79866" lon="1.5607">
        <ele>121.6</ele>
        <time>2020-06-08T18:19:25Z</time>
      </trkpt>
      <trkpt lat="44.79916" lon="1.56016">
        <ele>114.4</ele>
        <time>2020-06-08T18:19:57Z</time>
      </trkpt>
      <trkpt lat="44.79974" lon="1.5608">
        <ele>111</ele>
        <time>2020-06-08T18:20:34Z</time>
      </trkpt>
      <trkpt lat="44.80017" lon="1.56007">
        <ele>108.3</ele>
        <time>2020-06-08T18:21:08Z</time>
      </trkpt>
      <trkpt lat="44.80134" lon="1.55943">
        <ele>110.7</ele>
        <time>2020-06-08T18:22:10Z</time>
      </trkpt>
      <trkpt lat="44.80403" lon="1.55731">
        <ele>109.7</ele>
        <time>2020-06-08T18:24:45Z</time>
      </trkpt>
      <trkpt lat="44.80414" lon="1.55619">
        <ele>132.8</ele>
        <time>2020-06-08T18:25:25Z</time>
      </trkpt>
      <trkpt lat="44.80242" lon="1.55615">
        <ele>144.1</ele>
        <time>2020-06-08T18:26:51Z</time>
      </trkpt>
      <trkpt lat="44.80134" lon="1.55677">
        <ele>140.4</ele>
        <time>2020-06-08T18:27:49Z</time>
      </trkpt>
      <trkpt lat="44.80094" lon="1.55728">
        <ele>133.4</ele>
        <time>2020-06-08T18:28:16Z</time>
      </trkpt>
      <trkpt lat="44.79972" lon="1.55681">
        <ele>152.7</ele>
        <time>2020-06-08T18:29:19Z</time>
      </trkpt>
      <trkpt lat="44.79926" lon="1.55641">
        <ele>160.3</ele>
        <time>2020-06-08T18:29:46Z</time>
      </trkpt>
      <trkpt lat="44.79807" lon="1.5555">
        <ele>180.2</ele>
        <time>2020-06-08T18:30:54Z</time>
      </trkpt>
      <trkpt lat="44.79725" lon="1.55443">
        <ele>189.8</ele>
        <time>2020-06-08T18:31:50Z</time>
      </trkpt>
      <trkpt lat="44.79701" lon="1.55351">
        <ele>200.5</ele>
        <time>2020-06-08T18:32:25Z</time>
      </trkpt>
      <trkpt lat="44.79717" lon="1.55186">
        <ele>213.6</ele>
        <time>2020-06-08T18:33:24Z</time>
      </trkpt>
      <trkpt lat="44.79798" lon="1.54993">
        <ele>220.9</ele>
        <time>2020-06-08T18:34:44Z</time>
      </trkpt>
      <trkpt lat="44.79777" lon="1.54907">
        <ele>231.8</ele>
        <time>2020-06-08T18:35:16Z</time>
      </trkpt>
      <trkpt lat="44.79711" lon="1.54834">
        <ele>243.2</ele>
        <time>2020-06-08T18:35:58Z</time>
      </trkpt>
      <trkpt lat="44.79695" lon="1.54744">
        <ele>249.2</ele>
        <time>2020-06-08T18:36:31Z</time>
      </trkpt>
      <trkpt lat="44.79708" lon="1.54617">
        <ele>253.2</ele>
        <time>2020-06-08T18:37:16Z</time>
      </trkpt>
      <trkpt lat="44.79701" lon="1.54499">
        <ele>253.8</ele>
        <time>2020-06-08T18:37:59Z</time>
      </trkpt>
      <trkpt lat="44.79661" lon="1.54396">
        <ele>253.9</ele>
        <time>2020-06-08T18:38:40Z</time>
      </trkpt>
      <trkpt lat="44.79612" lon="1.54411">
        <ele>249.1</ele>
        <time>2020-06-08T18:39:05Z</time>
      </trkpt>
      <trkpt lat="44.79343" lon="1.54304">
        <ele>236.5</ele>
        <time>2020-06-08T18:41:25Z</time>
      </trkpt>
      <trkpt lat="44.7927" lon="1.54302">
        <ele>227.9</ele>
        <time>2020-06-08T18:42:02Z</time>
      </trkpt>
      <trkpt lat="44.79188" lon="1.54237">
        <ele>223.5</ele>
        <time>2020-06-08T18:42:49Z</time>
      </trkpt>
      <trkpt lat="44.79087" lon="1.54188">
        <ele>223</ele>
        <time>2020-06-08T18:43:42Z</time>
      </trkpt>
      <trkpt lat="44.78979" lon="1.5422">
        <ele>205.5</ele>
        <time>2020-06-08T18:44:38Z</time>
      </trkpt>
      <trkpt lat="44.78945" lon="1.54184">
        <ele>203.8</ele>
        <time>2020-06-08T18:44:59Z</time>
      </trkpt>
      <trkpt lat="44.78929" lon="1.54068">
        <ele>200.3</ele>
        <time>2020-06-08T18:45:41Z</time>
      </trkpt>
      <trkpt lat="44.78955" lon="1.53935">
        <ele>198.8</ele>
        <time>2020-06-08T18:46:30Z</time>
      </trkpt>
      <trkpt lat="44.79028" lon="1.53782">
        <ele>202.5</ele>
        <time>2020-06-08T18:47:35Z</time>
      </trkpt>
      <trkpt lat="44.7906" lon="1.53664">
        <ele>197.7</ele>
        <time>2020-06-08T18:48:20Z</time>
      </trkpt>
      <trkpt lat="44.79168" lon="1.5345">
        <ele>182.3</ele>
        <time>2020-06-08T18:49:53Z</time>
      </trkpt>
      <trkpt lat="44.79189" lon="1.53351">
        <ele>184.8</ele>
        <time>2020-06-08T18:50:30Z</time>
      </trkpt>
      <trkpt lat="44.79239" lon="1.53259">
        <ele>179.1</ele>
        <time>2020-06-08T18:51:11Z</time>
      </trkpt>
      <trkpt lat="44.79221" lon="1.53182">
        <ele>176.7</ele>
        <time>2020-06-08T18:51:40Z</time>
      </trkpt>
      <trkpt lat="44.79133" lon="1.53051">
        <ele>166.4</ele>
        <time>2020-06-08T18:52:44Z</time>
      </trkpt>
      <trkpt lat="44.79122" lon="1.52887">
        <ele>159.2</ele>
        <time>2020-06-08T18:53:43Z</time>
      </trkpt>
      <trkpt lat="44.79093" lon="1.52853">
        <ele>159.7</ele>
        <time>2020-06-08T18:54:01Z</time>
      </trkpt>
      <trkpt lat="44.78993" lon="1.52832">
        <ele>163.3</ele>
        <time>2020-06-08T18:54:52Z</time>
      </trkpt>
      <trkpt lat="44.78912" lon="1.52842">
        <ele>166.2</ele>
        <time>2020-06-08T18:55:33Z</time>
      </trkpt>
      <trkpt lat="44.78848" lon="1.52905">
        <ele>168.4</ele>
        <time>2020-06-08T18:56:12Z</time>
      </trkpt>
      <trkpt lat="44.78786" lon="1.52911">
        <ele>168.6</ele>
        <time>2020-06-08T18:56:43Z</time>
      </trkpt>
      <trkpt lat="44.78743" lon="1.52883">
        <ele>170.7</ele>
        <time>2020-06-08T18:57:07Z</time>
      </trkpt>
      <trkpt lat="44.78648" lon="1.52772">
        <ele>188.5</ele>
        <time>2020-06-08T18:58:08Z</time>
      </trkpt>
      <trkpt lat="44.78664" lon="1.52737">
        <ele>189.1</ele>
        <time>2020-06-08T18:58:23Z</time>
      </trkpt>
      <trkpt lat="44.78648" lon="1.52609">
        <ele>183.4</ele>
        <time>2020-06-08T18:59:09Z</time>
      </trkpt>
      <trkpt lat="44.78604" lon="1.52503">
        <ele>184.9</ele>
        <time>2020-06-08T18:59:53Z</time>
      </trkpt>
      <trkpt lat="44.78607" lon="1.52443">
        <ele>182.5</ele>
        <time>2020-06-08T19:00:14Z</time>
      </trkpt>
      <trkpt lat="44.78556" lon="1.52351">
        <ele>185.5</ele>
        <time>2020-06-08T19:00:56Z</time>
      </trkpt>
      <trkpt lat="44.78531" lon="1.52293">
        <ele>186.4</ele>
        <time>2020-06-08T19:01:20Z</time>
      </trkpt>
      <trkpt lat="44.78481" lon="1.52233">
        <ele>188.4</ele>
        <time>2020-06-08T19:01:53Z</time>
      </trkpt>
      <trkpt lat="44.78452" lon="1.52149">
        <ele>187.7</ele>
        <time>2020-06-08T19:02:26Z</time>
      </trkpt>
      <trkpt lat="44.78345" lon="1.52044">
        <ele>200.2</ele>
        <time>2020-06-08T19:03:31Z</time>
      </trkpt>
      <trkpt lat="44.78239" lon="1.51834">
        <ele>196.5</ele>
        <time>2020-06-08T19:05:03Z</time>
      </trkpt>
      <trkpt lat="44.78152" lon="1.51752">
        <ele>205.4</ele>
        <time>2020-06-08T19:05:55Z</time>
      </trkpt>
      <trkpt lat="44.77987" lon="1.51454">
        <ele>216</ele>
        <time>2020-06-08T19:08:09Z</time>
      </trkpt>
      <trkpt lat="44.77933" lon="1.5127">
        <ele>219</ele>
        <time>2020-06-08T19:09:20Z</time>
      </trkpt>
      <trkpt lat="44.77936" lon="1.5121">
        <ele>212.7</ele>
        <time>2020-06-08T19:09:41Z</time>
      </trkpt>
      <trkpt lat="44.77919" lon="1.51156">
        <ele>209.6</ele>
        <time>2020-06-08T19:10:02Z</time>
      </trkpt>
      <trkpt lat="44.77911" lon="1.51064">
        <ele>208.9</ele>
        <time>2020-06-08T19:10:35Z</time>
      </trkpt>
      <trkpt lat="44.77949" lon="1.50896">
        <ele>209.4</ele>
        <time>2020-06-08T19:11:38Z</time>
      </trkpt>
      <trkpt lat="44.77948" lon="1.50722">
        <ele>213.4</ele>
        <time>2020-06-08T19:12:40Z</time>
      </trkpt>
      <trkpt lat="44.78053" lon="1.50446">
        <ele>231.5</ele>
        <time>2020-06-08T19:14:31Z</time>
      </trkpt>
      <trkpt lat="44.78144" lon="1.50184">
        <ele>231.1</ele>
        <time>2020-06-08T19:16:15Z</time>
      </trkpt>
      <trkpt lat="44.7812" lon="1.50083">
        <ele>235.9</ele>
        <time>2020-06-08T19:16:52Z</time>
      </trkpt>
      <trkpt lat="44.78039" lon="1.49903">
        <ele>231.4</ele>
        <time>2020-06-08T19:18:08Z</time>
      </trkpt>
      <trkpt lat="44.77969" lon="1.49813">
        <ele>237.4</ele>
        <time>2020-06-08T19:18:56Z</time>
      </trkpt>
      <trkpt lat="44.77927" lon="1.49728">
        <ele>246.2</ele>
        <time>2020-06-08T19:19:32Z</time>
      </trkpt>
      <trkpt lat="44.77918" lon="1.49569">
        <ele>241</ele>
        <time>2020-06-08T19:20:29Z</time>
      </trkpt>
      <trkpt lat="44.77862" lon="1.4955">
        <ele>248</ele>
        <time>2020-06-08T19:20:58Z</time>
      </trkpt>
      <trkpt lat="44.77853" lon="1.49492">
        <ele>243</ele>
        <time>2020-06-08T19:21:19Z</time>
      </trkpt>
      <trkpt lat="44.77824" lon="1.49449">
        <ele>245.8</ele>
        <time>2020-06-08T19:21:40Z</time>
      </trkpt>
      <trkpt lat="44.77819" lon="1.49387">
        <ele>246.6</ele>
        <time>2020-06-08T19:22:02Z</time>
      </trkpt>
      <trkpt lat="44.7778" lon="1.49337">
        <ele>253.6</ele>
        <time>2020-06-08T19:22:29Z</time>
      </trkpt>
      <trkpt lat="44.77734" lon="1.49305">
        <ele>256.6</ele>
        <time>2020-06-08T19:22:54Z</time>
      </trkpt>
      <trkpt lat="44.77685" lon="1.49211">
        <ele>250.3</ele>
        <time>2020-06-08T19:23:36Z</time>
      </trkpt>
      <trkpt lat="44.7749" lon="1.49078">
        <ele>261.7</ele>
        <time>2020-06-08T19:25:24Z</time>
      </trkpt>
      <trkpt lat="44.77446" lon="1.49011">
        <ele>260</ele>
        <time>2020-06-08T19:25:56Z</time>
      </trkpt>
      <trkpt lat="44.7737" lon="1.48945">
        <ele>261.7</ele>
        <time>2020-06-08T19:26:41Z</time>
      </trkpt>
      <trkpt lat="44.77024" lon="1.48852">
        <ele>270.6</ele>
        <time>2020-06-08T19:29:37Z</time>
      </trkpt>
      <trkpt lat="44.76975" lon="1.48878">
        <ele>272.4</ele>
        <time>2020-06-08T19:30:04Z</time>
      </trkpt>
      <trkpt lat="44.7694" lon="1.4894">
        <ele>275.3</ele>
        <time>2020-06-08T19:30:32Z</time>
      </trkpt>
      <trkpt lat="44.76913" lon="1.48904">
        <ele>275.1</ele>
        <time>2020-06-08T19:30:50Z</time>
      </trkpt>
      <trkpt lat="44.76901" lon="1.48859">
        <ele>279.6</ele>
        <time>2020-06-08T19:31:07Z</time>
      </trkpt>
      <trkpt lat="44.77004" lon="1.48807">
        <ele>277.6</ele>
        <time>2020-06-08T19:32:02Z</time>
      </trkpt>
      <trkpt lat="44.7694" lon="1.48644">
        <ele>305.4</ele>
        <time>2020-06-08T19:33:08Z</time>
      </trkpt>
      <trkpt lat="44.76936" lon="1.4858">
        <ele>312.2</ele>
        <time>2020-06-08T19:33:31Z</time>
      </trkpt>
      <trkpt lat="44.76969" lon="1.48481">
        <ele>314.3</ele>
        <time>2020-06-08T19:34:10Z</time>
      </trkpt>
      <trkpt lat="44.7693" lon="1.4841">
        <ele>334</ele>
        <time>2020-06-08T19:34:42Z</time>
      </trkpt>
      <trkpt lat="44.76911" lon="1.48221">
        <ele>340.6</ele>
        <time>2020-06-08T19:35:50Z</time>
      </trkpt>
      <trkpt lat="44.76762" lon="1.48028">
        <ele>364</ele>
        <time>2020-06-08T19:37:31Z</time>
      </trkpt>
      <trkpt lat="44.76696" lon="1.47986">
        <ele>366.5</ele>
        <time>2020-06-08T19:38:07Z</time>
      </trkpt>
      <trkpt lat="44.76661" lon="1.47928">
        <ele>366.2</ele>
        <time>2020-06-08T19:38:34Z</time>
      </trkpt>
      <trkpt lat="44.76541" lon="1.48114">
        <ele>371.6</ele>
        <time>2020-06-08T19:40:04Z</time>
      </trkpt>
      <trkpt lat="44.76476" lon="1.48078">
        <ele>365.2</ele>
        <time>2020-06-08T19:40:39Z</time>
      </trkpt>
      <trkpt lat="44.76404" lon="1.48162">
        <ele>370.1</ele>
        <time>2020-06-08T19:41:25Z</time>
      </trkpt>
      <trkpt lat="44.76343" lon="1.48168">
        <ele>368.5</ele>
        <time>2020-06-08T19:41:56Z</time>
      </trkpt>
      <trkpt lat="44.76288" lon="1.48217">
        <ele>369.1</ele>
        <time>2020-06-08T19:42:29Z</time>
      </trkpt>
      <trkpt lat="44.76239" lon="1.48234">
        <ele>367</ele>
        <time>2020-06-08T19:42:54Z</time>
      </trkpt>
      <trkpt lat="44.76185" lon="1.48267">
        <ele>369.8</ele>
        <time>2020-06-08T19:43:23Z</time>
      </trkpt>
      <trkpt lat="44.76119" lon="1.48258">
        <ele>370.1</ele>
        <time>2020-06-08T19:43:56Z</time>
      </trkpt>
      <trkpt lat="44.75979" lon="1.48265">
        <ele>365.4</ele>
        <time>2020-06-08T19:45:07Z</time>
      </trkpt>
      <trkpt lat="44.75919" lon="1.48215">
        <ele>364.3</ele>
        <time>2020-06-08T19:45:41Z</time>
      </trkpt>
      <trkpt lat="44.75857" lon="1.48191">
        <ele>368.3</ele>
        <time>2020-06-08T19:46:14Z</time>
      </trkpt>
      <trkpt lat="44.75819" lon="1.48022">
        <ele>364.2</ele>
        <time>2020-06-08T19:47:17Z</time>
      </trkpt>
      <trkpt lat="44.75731" lon="1.48003">
        <ele>361.7</ele>
        <time>2020-06-08T19:48:01Z</time>
      </trkpt>
      <trkpt lat="44.75654" lon="1.47932">
        <ele>360.4</ele>
        <time>2020-06-08T19:48:47Z</time>
      </trkpt>
      <trkpt lat="44.75519" lon="1.48013">
        <ele>355.3</ele>
        <time>2020-06-08T19:50:01Z</time>
      </trkpt>
      <trkpt lat="44.75537" lon="1.47945">
        <ele>353.3</ele>
        <time>2020-06-08T19:50:26Z</time>
      </trkpt>
      <trkpt lat="44.75621" lon="1.47833">
        <ele>354.7</ele>
        <time>2020-06-08T19:51:24Z</time>
      </trkpt>
      <trkpt lat="44.75691" lon="1.47794">
        <ele>354.3</ele>
        <time>2020-06-08T19:52:02Z</time>
      </trkpt>
      <trkpt lat="44.75727" lon="1.47629">
        <ele>340.2</ele>
        <time>2020-06-08T19:53:03Z</time>
      </trkpt>
      <trkpt lat="44.75734" lon="1.4743">
        <ele>326.9</ele>
        <time>2020-06-08T19:54:14Z</time>
      </trkpt>
      <trkpt lat="44.75522" lon="1.47114">
        <ele>300.4</ele>
        <time>2020-06-08T19:56:49Z</time>
      </trkpt>
      <trkpt lat="44.75482" lon="1.47181">
        <ele>302.2</ele>
        <time>2020-06-08T19:57:20Z</time>
      </trkpt>
      <trkpt lat="44.75408" lon="1.47179">
        <ele>310.1</ele>
        <time>2020-06-08T19:57:57Z</time>
      </trkpt>
      <trkpt lat="44.75363" lon="1.47209">
        <ele>308.7</ele>
        <time>2020-06-08T19:58:22Z</time>
      </trkpt>
      <trkpt lat="44.75308" lon="1.47211">
        <ele>310.4</ele>
        <time>2020-06-08T19:58:49Z</time>
      </trkpt>
      <trkpt lat="44.75287" lon="1.47063">
        <ele>308</ele>
        <time>2020-06-08T19:59:43Z</time>
      </trkpt>
      <trkpt lat="44.75246" lon="1.47084">
        <ele>311.1</ele>
        <time>2020-06-08T20:00:05Z</time>
      </trkpt>
      <trkpt lat="44.75167" lon="1.46977">
        <ele>303.8</ele>
        <time>2020-06-08T20:01:00Z</time>
      </trkpt>
      <trkpt lat="44.75234" lon="1.46891">
        <ele>298.3</ele>
        <time>2020-06-08T20:01:45Z</time>
      </trkpt>
      <trkpt lat="44.75214" lon="1.46657">
        <ele>281.6</ele>
        <time>2020-06-08T20:03:09Z</time>
      </trkpt>
      <trkpt lat="44.75208" lon="1.46481">
        <ele>279.2</ele>
        <time>2020-06-08T20:04:11Z</time>
      </trkpt>
      <trkpt lat="44.75097" lon="1.46322">
        <ele>270.1</ele>
        <time>2020-06-08T20:05:31Z</time>
      </trkpt>
      <trkpt lat="44.75001" lon="1.4625">
        <ele>266</ele>
        <time>2020-06-08T20:06:25Z</time>
      </trkpt>
      <trkpt lat="44.74918" lon="1.46252">
        <ele>266.1</ele>
        <time>2020-06-08T20:07:06Z</time>
      </trkpt>
      <trkpt lat="44.74883" lon="1.46164">
        <ele>260.6</ele>
        <time>2020-06-08T20:07:42Z</time>
      </trkpt>
      <trkpt lat="44.74848" lon="1.46119">
        <ele>263.2</ele>
        <time>2020-06-08T20:08:06Z</time>
      </trkpt>
      <trkpt lat="44.74734" lon="1.46087">
        <ele>256.9</ele>
        <time>2020-06-08T20:09:04Z</time>
      </trkpt>
      <trkpt lat="44.74653" lon="1.46011">
        <ele>254.7</ele>
        <time>2020-06-08T20:09:53Z</time>
      </trkpt>
      <trkpt lat="44.74537" lon="1.45962">
        <ele>245.6</ele>
        <time>2020-06-08T20:10:54Z</time>
      </trkpt>
      <trkpt lat="44.74478" lon="1.45818">
        <ele>241.7</ele>
        <time>2020-06-08T20:11:53Z</time>
      </trkpt>
      <trkpt lat="44.74443" lon="1.45544">
        <ele>239.7</ele>
        <time>2020-06-08T20:13:32Z</time>
      </trkpt>
      <trkpt lat="44.74446" lon="1.45441">
        <ele>237.8</ele>
        <time>2020-06-08T20:14:08Z</time>
      </trkpt>
      <trkpt lat="44.74345" lon="1.44818">
        <ele>233.3</ele>
        <time>2020-06-08T20:17:55Z</time>
      </trkpt>
      <trkpt lat="44.74297" lon="1.44741">
        <ele>231.7</ele>
        <time>2020-06-08T20:18:32Z</time>
      </trkpt>
      <trkpt lat="44.74278" lon="1.44597">
        <ele>230.6</ele>
        <time>2020-06-08T20:19:24Z</time>
      </trkpt>
      <trkpt lat="44.74275" lon="1.44273">
        <ele>232.5</ele>
        <time>2020-06-08T20:21:19Z</time>
      </trkpt>
      <trkpt lat="44.74252" lon="1.44222">
        <ele>233.9</ele>
        <time>2020-06-08T20:21:40Z</time>
      </trkpt>
      <trkpt lat="44.74254" lon="1.44057">
        <ele>231.1</ele>
        <time>2020-06-08T20:22:39Z</time>
      </trkpt>
      <trkpt lat="44.74207" lon="1.44052">
        <ele>236.8</ele>
        <time>2020-06-08T20:23:03Z</time>
      </trkpt>
      <trkpt lat="44.74182" lon="1.44007">
        <ele>236.3</ele>
        <time>2020-06-08T20:23:23Z</time>
      </trkpt>
      <trkpt lat="44.74143" lon="1.44003">
        <ele>238.1</ele>
        <time>2020-06-08T20:23:43Z</time>
      </trkpt>
      <trkpt lat="44.74152" lon="1.43849">
        <ele>229.5</ele>
        <time>2020-06-08T20:24:37Z</time>
      </trkpt>
      <trkpt lat="44.7412" lon="1.43834">
        <ele>231.4</ele>
        <time>2020-06-08T20:24:54Z</time>
      </trkpt>
      <trkpt lat="44.74018" lon="1.43915">
        <ele>233</ele>
        <time>2020-06-08T20:25:53Z</time>
      </trkpt>
      <trkpt lat="44.73795" lon="1.43795">
        <ele>239.1</ele>
        <time>2020-06-08T20:27:52Z</time>
      </trkpt>
      <trkpt lat="44.7381" lon="1.43731">
        <ele>245.6</ele>
        <time>2020-06-08T20:28:16Z</time>
      </trkpt>
      <trkpt lat="44.73789" lon="1.43518">
        <ele>273.9</ele>
        <time>2020-06-08T20:29:33Z</time>
      </trkpt>
      <trkpt lat="44.73748" lon="1.43308">
        <ele>284.4</ele>
        <time>2020-06-08T20:30:50Z</time>
      </trkpt>
      <trkpt lat="44.73958" lon="1.43299">
        <ele>275.5</ele>
        <time>2020-06-08T20:32:35Z</time>
      </trkpt>
      <trkpt lat="44.74073" lon="1.43177">
        <ele>254</ele>
        <time>2020-06-08T20:33:47Z</time>
      </trkpt>
      <trkpt lat="44.74103" lon="1.43057">
        <ele>241.4</ele>
        <time>2020-06-08T20:34:33Z</time>
      </trkpt>
      <trkpt lat="44.74109" lon="1.42979">
        <ele>235.7</ele>
        <time>2020-06-08T20:35:01Z</time>
      </trkpt>
      <trkpt lat="44.74149" lon="1.42838">
        <ele>227.1</ele>
        <time>2020-06-08T20:35:55Z</time>
      </trkpt>
      <trkpt lat="44.74205" lon="1.42825">
        <ele>224.3</ele>
        <time>2020-06-08T20:36:23Z</time>
      </trkpt>
      <trkpt lat="44.74159" lon="1.42752">
        <ele>234.2</ele>
        <time>2020-06-08T20:36:58Z</time>
      </trkpt>
      <trkpt lat="44.74098" lon="1.4254">
        <ele>227.7</ele>
        <time>2020-06-08T20:38:19Z</time>
      </trkpt>
      <trkpt lat="44.74073" lon="1.42484">
        <ele>226.5</ele>
        <time>2020-06-08T20:38:42Z</time>
      </trkpt>
      <trkpt lat="44.74062" lon="1.42391">
        <ele>221.8</ele>
        <time>2020-06-08T20:39:16Z</time>
      </trkpt>
      <trkpt lat="44.7399" lon="1.42271">
        <ele>243.5</ele>
        <time>2020-06-08T20:40:12Z</time>
      </trkpt>
      <trkpt lat="44.73963" lon="1.4222">
        <ele>249.9</ele>
        <time>2020-06-08T20:40:34Z</time>
      </trkpt>
      <trkpt lat="44.73972" lon="1.42138">
        <ele>246</ele>
        <time>2020-06-08T20:41:04Z</time>
      </trkpt>
      <trkpt lat="44.73948" lon="1.42037">
        <ele>244.6</ele>
        <time>2020-06-08T20:41:42Z</time>
      </trkpt>
      <trkpt lat="44.73943" lon="1.41956">
        <ele>234.9</ele>
        <time>2020-06-08T20:42:11Z</time>
      </trkpt>
      <trkpt lat="44.73893" lon="1.41827">
        <ele>221.4</ele>
        <time>2020-06-08T20:43:03Z</time>
      </trkpt>
      <trkpt lat="44.73865" lon="1.41713">
        <ele>218.8</ele>
        <time>2020-06-08T20:43:46Z</time>
      </trkpt>
      <trkpt lat="44.7387" lon="1.41557">
        <ele>223.7</ele>
        <time>2020-06-08T20:44:41Z</time>
      </trkpt>
      <trkpt lat="44.73931" lon="1.41469">
        <ele>215.4</ele>
        <time>2020-06-08T20:45:25Z</time>
      </trkpt>
      <trkpt lat="44.73967" lon="1.41389">
        <ele>210.5</ele>
        <time>2020-06-08T20:45:59Z</time>
      </trkpt>
      <trkpt lat="44.7398" lon="1.41329">
        <ele>209</ele>
        <time>2020-06-08T20:46:21Z</time>
      </trkpt>
      <trkpt lat="44.73755" lon="1.41286">
        <ele>227.6</ele>
        <time>2020-06-08T20:48:15Z</time>
      </trkpt>
      <trkpt lat="44.73809" lon="1.41209">
        <ele>229.4</ele>
        <time>2020-06-08T20:48:53Z</time>
      </trkpt>
      <trkpt lat="44.73816" lon="1.41113">
        <ele>234.7</ele>
        <time>2020-06-08T20:49:27Z</time>
      </trkpt>
      <trkpt lat="44.73794" lon="1.40932">
        <ele>225.3</ele>
        <time>2020-06-08T20:50:33Z</time>
      </trkpt>
      <trkpt lat="44.7382" lon="1.40711">
        <ele>229.1</ele>
        <time>2020-06-08T20:51:52Z</time>
      </trkpt>
      <trkpt lat="44.7389" lon="1.40671">
        <ele>220.3</ele>
        <time>2020-06-08T20:52:30Z</time>
      </trkpt>
      <trkpt lat="44.7405" lon="1.40538">
        <ele>203.2</ele>
        <time>2020-06-08T20:54:03Z</time>
      </trkpt>
      <trkpt lat="44.74022" lon="1.40383">
        <ele>205.8</ele>
        <time>2020-06-08T20:55:00Z</time>
      </trkpt>
      <trkpt lat="44.74056" lon="1.40233">
        <ele>203.8</ele>
        <time>2020-06-08T20:55:56Z</time>
      </trkpt>
      <trkpt lat="44.7408" lon="1.40218">
        <ele>201.5</ele>
        <time>2020-06-08T20:56:09Z</time>
      </trkpt>
      <trkpt lat="44.74079" lon="1.39849">
        <ele>199.4</ele>
        <time>2020-06-08T20:58:20Z</time>
      </trkpt>
      <trkpt lat="44.74047" lon="1.39641">
        <ele>213.1</ele>
        <time>2020-06-08T20:59:36Z</time>
      </trkpt>
      <trkpt lat="44.74005" lon="1.39621">
        <ele>213.3</ele>
        <time>2020-06-08T20:59:58Z</time>
      </trkpt>
      <trkpt lat="44.73955" lon="1.39684">
        <ele>203.1</ele>
        <time>2020-06-08T21:00:32Z</time>
      </trkpt>
      <trkpt lat="44.73882" lon="1.39673">
        <ele>201.1</ele>
        <time>2020-06-08T21:01:08Z</time>
      </trkpt>
      <trkpt lat="44.73832" lon="1.39639">
        <ele>200.6</ele>
        <time>2020-06-08T21:01:36Z</time>
      </trkpt>
      <trkpt lat="44.73768" lon="1.39626">
        <ele>199.2</ele>
        <time>2020-06-08T21:02:08Z</time>
      </trkpt>
      <trkpt lat="44.73675" lon="1.39765">
        <ele>199.8</ele>
        <time>2020-06-08T21:03:16Z</time>
      </trkpt>
      <trkpt lat="44.73699" lon="1.39838">
        <ele>210.8</ele>
        <time>2020-06-08T21:03:45Z</time>
      </trkpt>
      <trkpt lat="44.73612" lon="1.39806">
        <ele>213.9</ele>
        <time>2020-06-08T21:04:30Z</time>
      </trkpt>
      <trkpt lat="44.73509" lon="1.39722">
        <ele>226.6</ele>
        <time>2020-06-08T21:05:29Z</time>
      </trkpt>
      <trkpt lat="44.73411" lon="1.39589">
        <ele>221.6</ele>
        <time>2020-06-08T21:06:38Z</time>
      </trkpt>
      <trkpt lat="44.73292" lon="1.39437">
        <ele>235.9</ele>
        <time>2020-06-08T21:07:58Z</time>
      </trkpt>
      <trkpt lat="44.73262" lon="1.39265">
        <ele>222.7</ele>
        <time>2020-06-08T21:09:01Z</time>
      </trkpt>
      <trkpt lat="44.7328" lon="1.39224">
        <ele>214.8</ele>
        <time>2020-06-08T21:09:18Z</time>
      </trkpt>
      <trkpt lat="44.7328" lon="1.3916">
        <ele>210.2</ele>
        <time>2020-06-08T21:09:41Z</time>
      </trkpt>
      <trkpt lat="44.73342" lon="1.39128">
        <ele>193.5</ele>
        <time>2020-06-08T21:10:14Z</time>
      </trkpt>
      <trkpt lat="44.73409" lon="1.39025">
        <ele>190.9</ele>
        <time>2020-06-08T21:11:04Z</time>
      </trkpt>
      <trkpt lat="44.73421" lon="1.38902">
        <ele>192.7</ele>
        <time>2020-06-08T21:11:48Z</time>
      </trkpt>
      <trkpt lat="44.73497" lon="1.38834">
        <ele>207.4</ele>
        <time>2020-06-08T21:12:33Z</time>
      </trkpt>
      <trkpt lat="44.73532" lon="1.38682">
        <ele>227</ele>
        <time>2020-06-08T21:13:30Z</time>
      </trkpt>
      <trkpt lat="44.73531" lon="1.386">
        <ele>231.9</ele>
        <time>2020-06-08T21:13:59Z</time>
      </trkpt>
      <trkpt lat="44.73628" lon="1.38495">
        <ele>231.2</ele>
        <time>2020-06-08T21:15:00Z</time>
      </trkpt>
      <trkpt lat="44.73555" lon="1.38338">
        <ele>223.8</ele>
        <time>2020-06-08T21:16:07Z</time>
      </trkpt>
      <trkpt lat="44.73543" lon="1.38149">
        <ele>230.7</ele>
        <time>2020-06-08T21:17:14Z</time>
      </trkpt>
      <trkpt lat="44.73541" lon="1.37999">
        <ele>238</ele>
        <time>2020-06-08T21:18:07Z</time>
      </trkpt>
      <trkpt lat="44.73642" lon="1.37806">
        <ele>242.4</ele>
        <time>2020-06-08T21:19:33Z</time>
      </trkpt>
      <trkpt lat="44.73732" lon="1.37692">
        <ele>242.1</ele>
        <time>2020-06-08T21:20:33Z</time>
      </trkpt>
      <trkpt lat="44.73744" lon="1.37546">
        <ele>237.9</ele>
        <time>2020-06-08T21:21:25Z</time>
      </trkpt>
      <trkpt lat="44.73767" lon="1.37469">
        <ele>231.3</ele>
        <time>2020-06-08T21:21:55Z</time>
      </trkpt>
      <trkpt lat="44.73863" lon="1.37377">
        <ele>229.1</ele>
        <time>2020-06-08T21:22:53Z</time>
      </trkpt>
      <trkpt lat="44.73977" lon="1.37169">
        <ele>217</ele>
        <time>2020-06-08T21:24:27Z</time>
      </trkpt>
      <trkpt lat="44.74049" lon="1.37094">
        <ele>226.1</ele>
        <time>2020-06-08T21:25:11Z</time>
      </trkpt>
      <trkpt lat="44.74073" lon="1.37014">
        <ele>230</ele>
        <time>2020-06-08T21:25:42Z</time>
      </trkpt>
      <trkpt lat="44.74117" lon="1.36943">
        <ele>231.8</ele>
        <time>2020-06-08T21:26:16Z</time>
      </trkpt>
      <trkpt lat="44.74162" lon="1.36915">
        <ele>236.3</ele>
        <time>2020-06-08T21:26:40Z</time>
      </trkpt>
      <trkpt lat="44.74207" lon="1.36984">
        <ele>238</ele>
        <time>2020-06-08T21:27:14Z</time>
      </trkpt>
      <trkpt lat="44.74367" lon="1.36956">
        <ele>227.7</ele>
        <time>2020-06-08T21:28:34Z</time>
      </trkpt>
      <trkpt lat="44.74459" lon="1.3681">
        <ele>217.6</ele>
        <time>2020-06-08T21:29:44Z</time>
      </trkpt>
      <trkpt lat="44.74588" lon="1.36808">
        <ele>220.7</ele>
        <time>2020-06-08T21:30:48Z</time>
      </trkpt>
      <trkpt lat="44.74686" lon="1.36684">
        <ele>214.2</ele>
        <time>2020-06-08T21:31:54Z</time>
      </trkpt>
      <trkpt lat="44.74701" lon="1.36613">
        <ele>208</ele>
        <time>2020-06-08T21:32:21Z</time>
      </trkpt>
      <trkpt lat="44.74765" lon="1.36536">
        <ele>200.2</ele>
        <time>2020-06-08T21:33:03Z</time>
      </trkpt>
      <trkpt lat="44.74726" lon="1.36448">
        <ele>189.1</ele>
        <time>2020-06-08T21:33:40Z</time>
      </trkpt>
      <trkpt lat="44.74646" lon="1.3636">
        <ele>181.2</ele>
        <time>2020-06-08T21:34:30Z</time>
      </trkpt>
      <trkpt lat="44.74626" lon="1.36302">
        <ele>180.4</ele>
        <time>2020-06-08T21:34:53Z</time>
      </trkpt>
      <trkpt lat="44.74707" lon="1.36274">
        <ele>179.8</ele>
        <time>2020-06-08T21:35:35Z</time>
      </trkpt>
      <trkpt lat="44.74797" lon="1.36216">
        <ele>175.4</ele>
        <time>2020-06-08T21:36:25Z</time>
      </trkpt>
      <trkpt lat="44.7489" lon="1.36109">
        <ele>171</ele>
        <time>2020-06-08T21:37:25Z</time>
      </trkpt>
      <trkpt lat="44.74956" lon="1.36081">
        <ele>166.1</ele>
        <time>2020-06-08T21:37:59Z</time>
      </trkpt>
      <trkpt lat="44.75032" lon="1.35991">
        <ele>153.1</ele>
        <time>2020-06-08T21:38:49Z</time>
      </trkpt>
      <trkpt lat="44.751" lon="1.36025">
        <ele>151.7</ele>
        <time>2020-06-08T21:39:25Z</time>
      </trkpt>
      <trkpt lat="44.75224" lon="1.36012">
        <ele>151.5</ele>
        <time>2020-06-08T21:40:27Z</time>
      </trkpt>
      <trkpt lat="44.75367" lon="1.36062">
        <ele>137.1</ele>
        <time>2020-06-08T21:41:41Z</time>
      </trkpt>
      <trkpt lat="44.75431" lon="1.36137">
        <ele>132.9</ele>
        <time>2020-06-08T21:42:23Z</time>
      </trkpt>
      <trkpt lat="44.75492" lon="1.35939">
        <ele>129.3</ele>
        <time>2020-06-08T21:43:39Z</time>
      </trkpt>
      <trkpt lat="44.75652" lon="1.35649">
        <ele>132.7</ele>
        <time>2020-06-08T21:45:50Z</time>
      </trkpt>
      <trkpt lat="44.75768" lon="1.35495">
        <ele>126.7</ele>
        <time>2020-06-08T21:47:10Z</time>
      </trkpt>
      <trkpt lat="44.76019" lon="1.35278">
        <ele>125</ele>
        <time>2020-06-08T21:49:37Z</time>
      </trkpt>
      <trkpt lat="44.76088" lon="1.35066">
        <ele>118.4</ele>
        <time>2020-06-08T21:51:00Z</time>
      </trkpt>
      <trkpt lat="44.75945" lon="1.34868">
        <ele>127.8</ele>
        <time>2020-06-08T21:52:40Z</time>
      </trkpt>
      <trkpt lat="44.75974" lon="1.34815">
        <ele>128.5</ele>
        <time>2020-06-08T21:53:04Z</time>
      </trkpt>
      <trkpt lat="44.76021" lon="1.34785">
        <ele>127.3</ele>
        <time>2020-06-08T21:53:30Z</time>
      </trkpt>
      <trkpt lat="44.76082" lon="1.34716">
        <ele>124.4</ele>
        <time>2020-06-08T21:54:09Z</time>
      </trkpt>
      <trkpt lat="44.76188" lon="1.34667">
        <ele>126.9</ele>
        <time>2020-06-08T21:55:05Z</time>
      </trkpt>
      <trkpt lat="44.76243" lon="1.34622">
        <ele>128.4</ele>
        <time>2020-06-08T21:55:37Z</time>
      </trkpt>
      <trkpt lat="44.76301" lon="1.34456">
        <ele>133.8</ele>
        <time>2020-06-08T21:56:42Z</time>
      </trkpt>
      <trkpt lat="44.76359" lon="1.34369">
        <ele>128.6</ele>
        <time>2020-06-08T21:57:25Z</time>
      </trkpt>
      <trkpt lat="44.76383" lon="1.34285">
        <ele>123.1</ele>
        <time>2020-06-08T21:57:57Z</time>
      </trkpt>
      <trkpt lat="44.7642" lon="1.34231">
        <ele>119.9</ele>
        <time>2020-06-08T21:58:24Z</time>
      </trkpt>
      <trkpt lat="44.76485" lon="1.34235">
        <ele>123.6</ele>
        <time>2020-06-08T21:58:56Z</time>
      </trkpt>
      <trkpt lat="44.76531" lon="1.34165">
        <ele>125.6</ele>
        <time>2020-06-08T21:59:30Z</time>
      </trkpt>
      <trkpt lat="44.76597" lon="1.34083">
        <ele>124.1</ele>
        <time>2020-06-08T22:00:14Z</time>
      </trkpt>
      <trkpt lat="44.7669" lon="1.33828">
        <ele>123</ele>
        <time>2020-06-08T22:01:56Z</time>
      </trkpt>
      <trkpt lat="44.76726" lon="1.33768">
        <ele>119.3</ele>
        <time>2020-06-08T22:02:24Z</time>
      </trkpt>
      <trkpt lat="44.7677" lon="1.33626">
        <ele>120.9</ele>
        <time>2020-06-08T22:03:19Z</time>
      </trkpt>
      <trkpt lat="44.76729" lon="1.33495">
        <ele>121.3</ele>
        <time>2020-06-08T22:04:10Z</time>
      </trkpt>
      <trkpt lat="44.76725" lon="1.33409">
        <ele>126.2</ele>
        <time>2020-06-08T22:04:40Z</time>
      </trkpt>
      <trkpt lat="44.76754" lon="1.333">
        <ele>125.5</ele>
        <time>2020-06-08T22:05:22Z</time>
      </trkpt>
      <trkpt lat="44.76778" lon="1.33132">
        <ele>122.6</ele>
        <time>2020-06-08T22:06:23Z</time>
      </trkpt>
      <trkpt lat="44.76804" lon="1.33079">
        <ele>120.4</ele>
        <time>2020-06-08T22:06:46Z</time>
      </trkpt>
      <trkpt lat="44.76882" lon="1.32982">
        <ele>125.8</ele>
        <time>2020-06-08T22:07:38Z</time>
      </trkpt>
      <trkpt lat="44.76921" lon="1.32892">
        <ele>134.4</ele>
        <time>2020-06-08T22:08:15Z</time>
      </trkpt>
      <trkpt lat="44.76987" lon="1.32841">
        <ele>126</ele>
        <time>2020-06-08T22:08:53Z</time>
      </trkpt>
      <trkpt lat="44.76973" lon="1.3262">
        <ele>117.5</ele>
        <time>2020-06-08T22:10:12Z</time>
      </trkpt>
      <trkpt lat="44.77019" lon="1.32525">
        <ele>128.2</ele>
        <time>2020-06-08T22:10:52Z</time>
      </trkpt>
      <trkpt lat="44.77105" lon="1.32454">
        <ele>131</ele>
        <time>2020-06-08T22:11:42Z</time>
      </trkpt>
      <trkpt lat="44.77136" lon="1.32409">
        <ele>129.8</ele>
        <time>2020-06-08T22:12:05Z</time>
      </trkpt>
      <trkpt lat="44.7723" lon="1.32427">
        <ele>125.5</ele>
        <time>2020-06-08T22:12:52Z</time>
      </trkpt>
      <trkpt lat="44.77259" lon="1.3247">
        <ele>125.6</ele>
        <time>2020-06-08T22:13:13Z</time>
      </trkpt>
      <trkpt lat="44.77363" lon="1.32497">
        <ele>122.3</ele>
        <time>2020-06-08T22:14:06Z</time>
      </trkpt>
      <trkpt lat="44.77465" lon="1.32484">
        <ele>113.9</ele>
        <time>2020-06-08T22:14:57Z</time>
      </trkpt>
      <trkpt lat="44.77489" lon="1.32566">
        <ele>106.9</ele>
        <time>2020-06-08T22:15:29Z</time>
      </trkpt>
      <trkpt lat="44.77552" lon="1.3257">
        <ele>105.6</ele>
        <time>2020-06-08T22:16:00Z</time>
      </trkpt>
      <trkpt lat="44.77675" lon="1.32442">
        <ele>107.8</ele>
        <time>2020-06-08T22:17:17Z</time>
      </trkpt>
      <trkpt lat="44.77739" lon="1.32381">
        <ele>105.7</ele>
        <time>2020-06-08T22:17:56Z</time>
      </trkpt>
      <trkpt lat="44.78013" lon="1.32205">
        <ele>101.2</ele>
        <time>2020-06-08T22:20:26Z</time>
      </trkpt>
      <trkpt lat="44.77974" lon="1.32113">
        <ele>101.3</ele>
        <time>2020-06-08T22:21:04Z</time>
      </trkpt>
      <trkpt lat="44.77907" lon="1.32077">
        <ele>109.5</ele>
        <time>2020-06-08T22:21:40Z</time>
      </trkpt>
      <trkpt lat="44.77962" lon="1.32053">
        <ele>107</ele>
        <time>2020-06-08T22:22:09Z</time>
      </trkpt>
      <trkpt lat="44.78" lon="1.31976">
        <ele>112.3</ele>
        <time>2020-06-08T22:22:42Z</time>
      </trkpt>
      <trkpt lat="44.78015" lon="1.31901">
        <ele>116.2</ele>
        <time>2020-06-08T22:23:10Z</time>
      </trkpt>
      <trkpt lat="44.78042" lon="1.31869">
        <ele>113.7</ele>
        <time>2020-06-08T22:23:28Z</time>
      </trkpt>
      <trkpt lat="44.78053" lon="1.31819">
        <ele>114.2</ele>
        <time>2020-06-08T22:23:46Z</time>
      </trkpt>
      <trkpt lat="44.78096" lon="1.31759">
        <ele>109.6</ele>
        <time>2020-06-08T22:24:17Z</time>
      </trkpt>
      <trkpt lat="44.78134" lon="1.3168">
        <ele>105.3</ele>
        <time>2020-06-08T22:24:50Z</time>
      </trkpt>
      <trkpt lat="44.78196" lon="1.31673">
        <ele>100.3</ele>
        <time>2020-06-08T22:25:22Z</time>
      </trkpt>
      <trkpt lat="44.78275" lon="1.31534">
        <ele>111.4</ele>
        <time>2020-06-08T22:26:25Z</time>
      </trkpt>
      <trkpt lat="44.78313" lon="1.31418">
        <ele>111.5</ele>
        <time>2020-06-08T22:27:10Z</time>
      </trkpt>
      <trkpt lat="44.78359" lon="1.31347">
        <ele>108.7</ele>
        <time>2020-06-08T22:27:44Z</time>
      </trkpt>
      <trkpt lat="44.78406" lon="1.31319">
        <ele>110.1</ele>
        <time>2020-06-08T22:28:10Z</time>
      </trkpt>
      <trkpt lat="44.78516" lon="1.31188">
        <ele>123.8</ele>
        <time>2020-06-08T22:29:22Z</time>
      </trkpt>
      <trkpt lat="44.7858" lon="1.31146">
        <ele>120.6</ele>
        <time>2020-06-08T22:29:57Z</time>
      </trkpt>
      <trkpt lat="44.78717" lon="1.31158">
        <ele>107.3</ele>
        <time>2020-06-08T22:31:06Z</time>
      </trkpt>
      <trkpt lat="44.78793" lon="1.3113">
        <ele>108</ele>
        <time>2020-06-08T22:31:45Z</time>
      </trkpt>
      <trkpt lat="44.78824" lon="1.31227">
        <ele>101.7</ele>
        <time>2020-06-08T22:32:23Z</time>
      </trkpt>
      <trkpt lat="44.78942" lon="1.31193">
        <ele>99.8</ele>
        <time>2020-06-08T22:33:23Z</time>
      </trkpt>
      <trkpt lat="44.79148" lon="1.31266">
        <ele>104.3</ele>
        <time>2020-06-08T22:35:10Z</time>
      </trkpt>
      <trkpt lat="44.79204" lon="1.31317">
        <ele>109.6</ele>
        <time>2020-06-08T22:35:43Z</time>
      </trkpt>
      <trkpt lat="44.7923" lon="1.31249">
        <ele>107.7</ele>
        <time>2020-06-08T22:36:10Z</time>
      </trkpt>
      <trkpt lat="44.79399" lon="1.31167">
        <ele>94</ele>
        <time>2020-06-08T22:37:40Z</time>
      </trkpt>
      <trkpt lat="44.79519" lon="1.31135">
        <ele>93.1</ele>
        <time>2020-06-08T22:38:41Z</time>
      </trkpt>
      <trkpt lat="44.79554" lon="1.31068">
        <ele>93.8</ele>
        <time>2020-06-08T22:39:11Z</time>
      </trkpt>
      <trkpt lat="44.79816" lon="1.30976">
        <ele>116.8</ele>
        <time>2020-06-08T22:41:26Z</time>
      </trkpt>
      <trkpt lat="44.79905" lon="1.30806">
        <ele>136.8</ele>
        <time>2020-06-08T22:42:41Z</time>
      </trkpt>
      <trkpt lat="44.79981" lon="1.3074">
        <ele>121.9</ele>
        <time>2020-06-08T22:43:25Z</time>
      </trkpt>
      <trkpt lat="44.80058" lon="1.30727">
        <ele>118.3</ele>
        <time>2020-06-08T22:44:04Z</time>
      </trkpt>
      <trkpt lat="44.80156" lon="1.30678">
        <ele>107.9</ele>
        <time>2020-06-08T22:44:56Z</time>
      </trkpt>
      <trkpt lat="44.80281" lon="1.30688">
        <ele>118.8</ele>
        <time>2020-06-08T22:45:59Z</time>
      </trkpt>
      <trkpt lat="44.80425" lon="1.30109">
        <ele>87.8</ele>
        <time>2020-06-08T22:49:37Z</time>
      </trkpt>
      <trkpt lat="44.8041" lon="1.3007">
        <ele>85.8</ele>
        <time>2020-06-08T22:49:52Z</time>
      </trkpt>
      <trkpt lat="44.80457" lon="1.29957">
        <ele>85.5</ele>
        <time>2020-06-08T22:50:39Z</time>
      </trkpt>
      <trkpt lat="44.80579" lon="1.29744">
        <ele>87.6</ele>
        <time>2020-06-08T22:52:16Z</time>
      </trkpt>
      <trkpt lat="44.80648" lon="1.29712">
        <ele>89</ele>
        <time>2020-06-08T22:52:52Z</time>
      </trkpt>
      <trkpt lat="44.80728" lon="1.29734">
        <ele>94</ele>
        <time>2020-06-08T22:53:33Z</time>
      </trkpt>
      <trkpt lat="44.80702" lon="1.29515">
        <ele>94</ele>
        <time>2020-06-08T22:54:52Z</time>
      </trkpt>
      <trkpt lat="44.80736" lon="1.29451">
        <ele>98.3</ele>
        <time>2020-06-08T22:55:20Z</time>
      </trkpt>
      <trkpt lat="44.80782" lon="1.2946">
        <ele>97.7</ele>
        <time>2020-06-08T22:55:44Z</time>
      </trkpt>
      <trkpt lat="44.80794" lon="1.29381">
        <ele>100.4</ele>
        <time>2020-06-08T22:56:12Z</time>
      </trkpt>
      <trkpt lat="44.80818" lon="1.29344">
        <ele>101.8</ele>
        <time>2020-06-08T22:56:30Z</time>
      </trkpt>
      <trkpt lat="44.80823" lon="1.29411">
        <ele>97.7</ele>
        <time>2020-06-08T22:56:54Z</time>
      </trkpt>
      <trkpt lat="44.8084" lon="1.29389">
        <ele>99.5</ele>
        <time>2020-06-08T22:57:06Z</time>
      </trkpt>
      <trkpt lat="44.80846" lon="1.29321">
        <ele>104.5</ele>
        <time>2020-06-08T22:57:30Z</time>
      </trkpt>
      <trkpt lat="44.80791" lon="1.29297">
        <ele>104.3</ele>
        <time>2020-06-08T22:57:59Z</time>
      </trkpt>
      <trkpt lat="44.80705" lon="1.29222">
        <ele>106.5</ele>
        <time>2020-06-08T22:58:49Z</time>
      </trkpt>
      <trkpt lat="44.80599" lon="1.29355">
        <ele>97.6</ele>
        <time>2020-06-08T23:00:00Z</time>
      </trkpt>
      <trkpt lat="44.80533" lon="1.29359">
        <ele>94.9</ele>
        <time>2020-06-08T23:00:34Z</time>
      </trkpt>
      <trkpt lat="44.80241" lon="1.29271">
        <ele>92.8</ele>
        <time>2020-06-08T23:03:03Z</time>
      </trkpt>
      <trkpt lat="44.80071" lon="1.29321">
        <ele>103.9</ele>
        <time>2020-06-08T23:04:30Z</time>
      </trkpt>
      <trkpt lat="44.80109" lon="1.29248">
        <ele>103.5</ele>
        <time>2020-06-08T23:05:02Z</time>
      </trkpt>
      <trkpt lat="44.8011" lon="1.29162">
        <ele>113.2</ele>
        <time>2020-06-08T23:05:33Z</time>
      </trkpt>
      <trkpt lat="44.80133" lon="1.29132">
        <ele>115.5</ele>
        <time>2020-06-08T23:05:48Z</time>
      </trkpt>
      <trkpt lat="44.80171" lon="1.29157">
        <ele>107.7</ele>
        <time>2020-06-08T23:06:09Z</time>
      </trkpt>
      <trkpt lat="44.802" lon="1.29145">
        <ele>105.3</ele>
        <time>2020-06-08T23:06:24Z</time>
      </trkpt>
      <trkpt lat="44.80215" lon="1.29106">
        <ele>107.8</ele>
        <time>2020-06-08T23:06:40Z</time>
      </trkpt>
      <trkpt lat="44.80185" lon="1.28988">
        <ele>115.6</ele>
        <time>2020-06-08T23:07:25Z</time>
      </trkpt>
      <trkpt lat="44.80339" lon="1.2875">
        <ele>125.8</ele>
        <time>2020-06-08T23:09:19Z</time>
      </trkpt>
      <trkpt lat="44.80328" lon="1.28685">
        <ele>129.5</ele>
        <time>2020-06-08T23:09:43Z</time>
      </trkpt>
      <trkpt lat="44.80395" lon="1.28554">
        <ele>140.5</ele>
        <time>2020-06-08T23:10:40Z</time>
      </trkpt>
      <trkpt lat="44.80403" lon="1.28422">
        <ele>150.7</ele>
        <time>2020-06-08T23:11:27Z</time>
      </trkpt>
      <trkpt lat="44.80473" lon="1.28256">
        <ele>140.3</ele>
        <time>2020-06-08T23:12:36Z</time>
      </trkpt>
      <trkpt lat="44.80404" lon="1.28093">
        <ele>135.8</ele>
        <time>2020-06-08T23:13:43Z</time>
      </trkpt>
      <trkpt lat="44.80363" lon="1.28033">
        <ele>139.3</ele>
        <time>2020-06-08T23:14:13Z</time>
      </trkpt>
      <trkpt lat="44.8032" lon="1.28076">
        <ele>139</ele>
        <time>2020-06-08T23:14:39Z</time>
      </trkpt>
      <trkpt lat="44.80218" lon="1.2802">
        <ele>144.4</ele>
        <time>2020-06-08T23:15:34Z</time>
      </trkpt>
      <trkpt lat="44.8016" lon="1.27889">
        <ele>150</ele>
        <time>2020-06-08T23:16:29Z</time>
      </trkpt>
      <trkpt lat="44.80154" lon="1.27778">
        <ele>150.5</ele>
        <time>2020-06-08T23:17:08Z</time>
      </trkpt>
      <trkpt lat="44.80054" lon="1.27518">
        <ele>165</ele>
        <time>2020-06-08T23:18:53Z</time>
      </trkpt>
      <trkpt lat="44.80045" lon="1.27396">
        <ele>170.2</ele>
        <time>2020-06-08T23:19:37Z</time>
      </trkpt>
      <trkpt lat="44.80077" lon="1.27299">
        <ele>178.8</ele>
        <time>2020-06-08T23:20:15Z</time>
      </trkpt>
      <trkpt lat="44.80095" lon="1.27194">
        <ele>187.2</ele>
        <time>2020-06-08T23:20:53Z</time>
      </trkpt>
      <trkpt lat="44.80133" lon="1.27098">
        <ele>188.1</ele>
        <time>2020-06-08T23:21:32Z</time>
      </trkpt>
      <trkpt lat="44.8022" lon="1.27001">
        <ele>201.9</ele>
        <time>2020-06-08T23:22:28Z</time>
      </trkpt>
      <trkpt lat="44.80276" lon="1.27027">
        <ele>200.6</ele>
        <time>2020-06-08T23:22:57Z</time>
      </trkpt>
      <trkpt lat="44.80342" lon="1.27012">
        <ele>206.4</ele>
        <time>2020-06-08T23:23:31Z</time>
      </trkpt>
      <trkpt lat="44.8038" lon="1.26902">
        <ele>218</ele>
        <time>2020-06-08T23:24:14Z</time>
      </trkpt>
      <trkpt lat="44.80406" lon="1.26724">
        <ele>239.2</ele>
        <time>2020-06-08T23:25:18Z</time>
      </trkpt>
      <trkpt lat="44.80468" lon="1.2663">
        <ele>252.9</ele>
        <time>2020-06-08T23:26:04Z</time>
      </trkpt>
      <trkpt lat="44.8048" lon="1.26512">
        <ele>261.2</ele>
        <time>2020-06-08T23:26:46Z</time>
      </trkpt>
      <trkpt lat="44.8052" lon="1.26454">
        <ele>256.9</ele>
        <time>2020-06-08T23:27:15Z</time>
      </trkpt>
      <trkpt lat="44.80544" lon="1.26411">
        <ele>255.1</ele>
        <time>2020-06-08T23:27:35Z</time>
      </trkpt>
      <trkpt lat="44.80523" lon="1.26368">
        <ele>264</ele>
        <time>2020-06-08T23:27:53Z</time>
      </trkpt>
      <trkpt lat="44.80524" lon="1.26299">
        <ele>270.8</ele>
        <time>2020-06-08T23:28:18Z</time>
      </trkpt>
      <trkpt lat="44.80497" lon="1.26361">
        <ele>270.6</ele>
        <time>2020-06-08T23:28:43Z</time>
      </trkpt>
      <trkpt lat="44.80501" lon="1.26387">
        <ele>266.7</ele>
        <time>2020-06-08T23:28:53Z</time>
      </trkpt>
      <trkpt lat="44.80456" lon="1.26475">
        <ele>266</ele>
        <time>2020-06-08T23:29:31Z</time>
      </trkpt>
      <trkpt lat="44.8039" lon="1.26548">
        <ele>265.8</ele>
        <time>2020-06-08T23:30:13Z</time>
      </trkpt>
      <trkpt lat="44.80348" lon="1.26527">
        <ele>267.5</ele>
        <time>2020-06-08T23:30:36Z</time>
      </trkpt>
      <trkpt lat="44.80252" lon="1.26316">
        <ele>284.6</ele>
        <time>2020-06-08T23:32:05Z</time>
      </trkpt>
      <trkpt lat="44.80258" lon="1.26265">
        <ele>286.5</ele>
        <time>2020-06-08T23:32:23Z</time>
      </trkpt>
      <trkpt lat="44.80198" lon="1.26196">
        <ele>284</ele>
        <time>2020-06-08T23:33:02Z</time>
      </trkpt>
      <trkpt lat="44.80113" lon="1.26057">
        <ele>287</ele>
        <time>2020-06-08T23:34:07Z</time>
      </trkpt>
      <trkpt lat="44.80046" lon="1.25793">
        <ele>288.5</ele>
        <time>2020-06-08T23:35:46Z</time>
      </trkpt>
      <trkpt lat="44.80008" lon="1.25756">
        <ele>288.1</ele>
        <time>2020-06-08T23:36:10Z</time>
      </trkpt>
      <trkpt lat="44.79932" lon="1.25587">
        <ele>288.8</ele>
        <time>2020-06-08T23:37:21Z</time>
      </trkpt>
      <trkpt lat="44.79835" lon="1.25437">
        <ele>286.5</ele>
        <time>2020-06-08T23:38:33Z</time>
      </trkpt>
      <trkpt lat="44.79713" lon="1.25113">
        <ele>288.4</ele>
        <time>2020-06-08T23:40:43Z</time>
      </trkpt>
      <trkpt lat="44.79681" lon="1.2505">
        <ele>288.2</ele>
        <time>2020-06-08T23:41:10Z</time>
      </trkpt>
      <trkpt lat="44.79586" lon="1.24711">
        <ele>290.5</ele>
        <time>2020-06-08T23:43:20Z</time>
      </trkpt>
      <trkpt lat="44.79547" lon="1.2442">
        <ele>294.4</ele>
        <time>2020-06-08T23:45:05Z</time>
      </trkpt>
      <trkpt lat="44.79472" lon="1.24418">
        <ele>295</ele>
        <time>2020-06-08T23:45:43Z</time>
      </trkpt>
      <trkpt lat="44.79363" lon="1.24383">
        <ele>295.6</ele>
        <time>2020-06-08T23:46:39Z</time>
      </trkpt>
      <trkpt lat="44.79378" lon="1.24207">
        <ele>293.6</ele>
        <time>2020-06-08T23:47:41Z</time>
      </trkpt>
      <trkpt lat="44.79427" lon="1.2401">
        <ele>294.9</ele>
        <time>2020-06-08T23:48:56Z</time>
      </trkpt>
      <trkpt lat="44.7962" lon="1.23585">
        <ele>296.6</ele>
        <time>2020-06-08T23:51:55Z</time>
      </trkpt>
      <trkpt lat="44.79768" lon="1.23085">
        <ele>285</ele>
        <time>2020-06-08T23:55:07Z</time>
      </trkpt>
      <trkpt lat="44.79809" lon="1.23064">
        <ele>287.3</ele>
        <time>2020-06-08T23:55:29Z</time>
      </trkpt>
      <trkpt lat="44.79845" lon="1.22864">
        <ele>264.6</ele>
        <time>2020-06-08T23:56:42Z</time>
      </trkpt>
      <trkpt lat="44.7987" lon="1.22832">
        <ele>260.9</ele>
        <time>2020-06-08T23:56:59Z</time>
      </trkpt>
      <trkpt lat="44.79932" lon="1.22613">
        <ele>237.7</ele>
        <time>2020-06-08T23:58:23Z</time>
      </trkpt>
      <trkpt lat="44.79998" lon="1.22516">
        <ele>238.3</ele>
        <time>2020-06-08T23:59:11Z</time>
      </trkpt>
      <trkpt lat="44.80074" lon="1.22473">
        <ele>232.6</ele>
        <time>2020-06-08T23:59:52Z</time>
      </trkpt>
      <trkpt lat="44.80174" lon="1.22214">
        <ele>185.5</ele>
        <time>2020-06-09T00:01:36Z</time>
      </trkpt>
      <trkpt lat="44.8022" lon="1.2186">
        <ele>173.7</ele>
        <time>2020-06-09T00:03:44Z</time>
      </trkpt>
      <trkpt lat="44.80206" lon="1.21806">
        <ele>171</ele>
        <time>2020-06-09T00:04:04Z</time>
      </trkpt>
      <trkpt lat="44.80235" lon="1.21759">
        <ele>174.3</ele>
        <time>2020-06-09T00:04:27Z</time>
      </trkpt>
      <trkpt lat="44.80229" lon="1.21692">
        <ele>182.9</ele>
        <time>2020-06-09T00:04:51Z</time>
      </trkpt>
      <trkpt lat="44.80174" lon="1.2166">
        <ele>182.2</ele>
        <time>2020-06-09T00:05:20Z</time>
      </trkpt>
      <trkpt lat="44.80133" lon="1.21461">
        <ele>185.2</ele>
        <time>2020-06-09T00:06:34Z</time>
      </trkpt>
      <trkpt lat="44.80112" lon="1.21431">
        <ele>182.3</ele>
        <time>2020-06-09T00:06:49Z</time>
      </trkpt>
      <trkpt lat="44.8013" lon="1.21381">
        <ele>180.5</ele>
        <time>2020-06-09T00:07:09Z</time>
      </trkpt>
      <trkpt lat="44.80095" lon="1.21338">
        <ele>167.8</ele>
        <time>2020-06-09T00:07:32Z</time>
      </trkpt>
      <trkpt lat="44.80031" lon="1.21353">
        <ele>153</ele>
        <time>2020-06-09T00:08:05Z</time>
      </trkpt>
      <trkpt lat="44.80083" lon="1.21298">
        <ele>157.3</ele>
        <time>2020-06-09T00:08:37Z</time>
      </trkpt>
      <trkpt lat="44.80144" lon="1.21134">
        <ele>135.9</ele>
        <time>2020-06-09T00:09:43Z</time>
      </trkpt>
      <trkpt lat="44.80135" lon="1.20956">
        <ele>117.6</ele>
        <time>2020-06-09T00:10:46Z</time>
      </trkpt>
      <trkpt lat="44.80001" lon="1.20718">
        <ele>91.5</ele>
        <time>2020-06-09T00:12:34Z</time>
      </trkpt>
      <trkpt lat="44.79993" lon="1.20604">
        <ele>86.8</ele>
        <time>2020-06-09T00:13:15Z</time>
      </trkpt>
      <trkpt lat="44.80011" lon="1.20512">
        <ele>82.9</ele>
        <time>2020-06-09T00:13:49Z</time>
      </trkpt>
      <trkpt lat="44.80118" lon="1.20356">
        <ele>79.6</ele>
        <time>2020-06-09T00:15:06Z</time>
      </trkpt>
      <trkpt lat="44.80211" lon="1.20343">
        <ele>80.1</ele>
        <time>2020-06-09T00:15:52Z</time>
      </trkpt>
      <trkpt lat="44.80325" lon="1.20375">
        <ele>82.3</ele>
        <time>2020-06-09T00:16:51Z</time>
      </trkpt>
      <trkpt lat="44.80322" lon="1.20315">
        <ele>78.1</ele>
        <time>2020-06-09T00:17:12Z</time>
      </trkpt>
      <trkpt lat="44.80395" lon="1.20291">
        <ele>74</ele>
        <time>2020-06-09T00:17:49Z</time>
      </trkpt>
      <trkpt lat="44.80427" lon="1.19886">
        <ele>71.3</ele>
        <time>2020-06-09T00:20:14Z</time>
      </trkpt>
      <trkpt lat="44.80416" lon="1.19858">
        <ele>71.3</ele>
        <time>2020-06-09T00:20:26Z</time>
      </trkpt>
      <trkpt lat="44.80456" lon="1.19789">
        <ele>69.6</ele>
        <time>2020-06-09T00:20:57Z</time>
      </trkpt>
      <trkpt lat="44.80575" lon="1.19686">
        <ele>69</ele>
        <time>2020-06-09T00:22:07Z</time>
      </trkpt>
      <trkpt lat="44.80626" lon="1.19422">
        <ele>70.5</ele>
        <time>2020-06-09T00:23:44Z</time>
      </trkpt>
      <trkpt lat="44.80736" lon="1.19482">
        <ele>69.8</ele>
        <time>2020-06-09T00:24:43Z</time>
      </trkpt>
      <trkpt lat="44.80737" lon="1.19405">
        <ele>69</ele>
        <time>2020-06-09T00:25:11Z</time>
      </trkpt>
      <trkpt lat="44.80777" lon="1.1918">
        <ele>69.2</ele>
        <time>2020-06-09T00:26:33Z</time>
      </trkpt>
      <trkpt lat="44.80882" lon="1.18839">
        <ele>70.1</ele>
        <time>2020-06-09T00:28:45Z</time>
      </trkpt>
      <trkpt lat="44.80896" lon="1.18699">
        <ele>69.4</ele>
        <time>2020-06-09T00:29:35Z</time>
      </trkpt>
      <trkpt lat="44.81001" lon="1.18534">
        <ele>70.2</ele>
        <time>2020-06-09T00:30:54Z</time>
      </trkpt>
      <trkpt lat="44.81019" lon="1.1845">
        <ele>70.4</ele>
        <time>2020-06-09T00:31:25Z</time>
      </trkpt>
      <trkpt lat="44.81075" lon="1.18381">
        <ele>69.6</ele>
        <time>2020-06-09T00:32:02Z</time>
      </trkpt>
      <trkpt lat="44.8115" lon="1.18214">
        <ele>69</ele>
        <time>2020-06-09T00:33:12Z</time>
      </trkpt>
      <trkpt lat="44.81098" lon="1.18109">
        <ele>69.4</ele>
        <time>2020-06-09T00:33:58Z</time>
      </trkpt>
      <trkpt lat="44.81091" lon="1.18053">
        <ele>70.3</ele>
        <time>2020-06-09T00:34:18Z</time>
      </trkpt>
      <trkpt lat="44.81144" lon="1.18008">
        <ele>72.1</ele>
        <time>2020-06-09T00:34:49Z</time>
      </trkpt>
      <trkpt lat="44.81126" lon="1.17946">
        <ele>80.1</ele>
        <time>2020-06-09T00:35:13Z</time>
      </trkpt>
      <trkpt lat="44.81063" lon="1.17879">
        <ele>96.9</ele>
        <time>2020-06-09T00:35:52Z</time>
      </trkpt>
      <trkpt lat="44.81083" lon="1.17817">
        <ele>106</ele>
        <time>2020-06-09T00:36:16Z</time>
      </trkpt>
      <trkpt lat="44.81027" lon="1.17744">
        <ele>124.9</ele>
        <time>2020-06-09T00:36:55Z</time>
      </trkpt>
      <trkpt lat="44.81072" lon="1.17686">
        <ele>125</ele>
        <time>2020-06-09T00:37:25Z</time>
      </trkpt>
      <trkpt lat="44.8115" lon="1.17682">
        <ele>121.9</ele>
        <time>2020-06-09T00:38:04Z</time>
      </trkpt>
      <trkpt lat="44.81203" lon="1.1771">
        <ele>118.4</ele>
        <time>2020-06-09T00:38:32Z</time>
      </trkpt>
      <trkpt lat="44.81281" lon="1.17684">
        <ele>122.7</ele>
        <time>2020-06-09T00:39:13Z</time>
      </trkpt>
      <trkpt lat="44.81363" lon="1.17699">
        <ele>126.1</ele>
        <time>2020-06-09T00:39:54Z</time>
      </trkpt>
      <trkpt lat="44.81412" lon="1.17673">
        <ele>122.7</ele>
        <time>2020-06-09T00:40:20Z</time>
      </trkpt>
      <trkpt lat="44.81451" lon="1.17493">
        <ele>122.9</ele>
        <time>2020-06-09T00:41:27Z</time>
      </trkpt>
      <trkpt lat="44.81506" lon="1.17396">
        <ele>117</ele>
        <time>2020-06-09T00:42:11Z</time>
      </trkpt>
      <trkpt lat="44.81596" lon="1.17362">
        <ele>119.5</ele>
        <time>2020-06-09T00:42:58Z</time>
      </trkpt>
      <trkpt lat="44.81707" lon="1.17399">
        <ele>123.4</ele>
        <time>2020-06-09T00:43:55Z</time>
      </trkpt>
      <trkpt lat="44.81765" lon="1.17379">
        <ele>115.1</ele>
        <time>2020-06-09T00:44:25Z</time>
      </trkpt>
      <trkpt lat="44.81681" lon="1.17356">
        <ele>119.3</ele>
        <time>2020-06-09T00:45:07Z</time>
      </trkpt>
      <trkpt lat="44.81649" lon="1.17296">
        <ele>113.9</ele>
        <time>2020-06-09T00:45:34Z</time>
      </trkpt>
      <trkpt lat="44.81652" lon="1.17233">
        <ele>115.1</ele>
        <time>2020-06-09T00:45:56Z</time>
      </trkpt>
      <trkpt lat="44.81683" lon="1.17236">
        <ele>114</ele>
        <time>2020-06-09T00:46:12Z</time>
      </trkpt>
      <trkpt lat="44.81744" lon="1.17191">
        <ele>121.4</ele>
        <time>2020-06-09T00:46:47Z</time>
      </trkpt>
      <trkpt lat="44.81744" lon="1.17053">
        <ele>144.8</ele>
        <time>2020-06-09T00:47:35Z</time>
      </trkpt>
      <trkpt lat="44.81712" lon="1.16914">
        <ele>140.5</ele>
        <time>2020-06-09T00:48:27Z</time>
      </trkpt>
      <trkpt lat="44.81622" lon="1.16723">
        <ele>129.1</ele>
        <time>2020-06-09T00:49:49Z</time>
      </trkpt>
      <trkpt lat="44.81537" lon="1.16697">
        <ele>141.3</ele>
        <time>2020-06-09T00:50:32Z</time>
      </trkpt>
      <trkpt lat="44.81526" lon="1.16646">
        <ele>145.7</ele>
        <time>2020-06-09T00:50:51Z</time>
      </trkpt>
      <trkpt lat="44.81488" lon="1.16573">
        <ele>157.7</ele>
        <time>2020-06-09T00:51:23Z</time>
      </trkpt>
      <trkpt lat="44.81491" lon="1.16536">
        <ele>158.8</ele>
        <time>2020-06-09T00:51:37Z</time>
      </trkpt>
      <trkpt lat="44.81372" lon="1.16171">
        <ele>173.3</ele>
        <time>2020-06-09T00:53:59Z</time>
      </trkpt>
      <trkpt lat="44.81407" lon="1.15905">
        <ele>168.8</ele>
        <time>2020-06-09T00:55:35Z</time>
      </trkpt>
      <trkpt lat="44.81383" lon="1.15703">
        <ele>97.9</ele>
        <time>2020-06-09T00:56:48Z</time>
      </trkpt>
      <trkpt lat="44.81313" lon="1.15699">
        <ele>100.1</ele>
        <time>2020-06-09T00:57:23Z</time>
      </trkpt>
      <trkpt lat="44.81167" lon="1.15635">
        <ele>82.5</ele>
        <time>2020-06-09T00:58:39Z</time>
      </trkpt>
      <trkpt lat="44.80919" lon="1.15658">
        <ele>70.3</ele>
        <time>2020-06-09T01:00:44Z</time>
      </trkpt>
      <trkpt lat="44.80769" lon="1.1577">
        <ele>73.1</ele>
        <time>2020-06-09T01:02:09Z</time>
      </trkpt>
      <trkpt lat="44.8074" lon="1.15712">
        <ele>71.8</ele>
        <time>2020-06-09T01:02:34Z</time>
      </trkpt>
      <trkpt lat="44.80846" lon="1.15472">
        <ele>73</ele>
        <time>2020-06-09T01:04:14Z</time>
      </trkpt>
      <trkpt lat="44.80852" lon="1.1542">
        <ele>75.6</ele>
        <time>2020-06-09T01:04:33Z</time>
      </trkpt>
      <trkpt lat="44.80911" lon="1.15397">
        <ele>82</ele>
        <time>2020-06-09T01:05:04Z</time>
      </trkpt>
      <trkpt lat="44.80934" lon="1.15362">
        <ele>92.2</ele>
        <time>2020-06-09T01:05:21Z</time>
      </trkpt>
      <trkpt lat="44.81033" lon="1.15328">
        <ele>90.6</ele>
        <time>2020-06-09T01:06:12Z</time>
      </trkpt>
      <trkpt lat="44.81339" lon="1.15148">
        <ele>99.2</ele>
        <time>2020-06-09T01:08:58Z</time>
      </trkpt>
      <trkpt lat="44.81381" lon="1.15088">
        <ele>107.3</ele>
        <time>2020-06-09T01:09:27Z</time>
      </trkpt>
      <trkpt lat="44.81384" lon="1.14978">
        <ele>122.1</ele>
        <time>2020-06-09T01:10:07Z</time>
      </trkpt>
      <trkpt lat="44.81412" lon="1.15013">
        <ele>107.1</ele>
        <time>2020-06-09T01:10:25Z</time>
      </trkpt>
      <trkpt lat="44.81427" lon="1.14976">
        <ele>107.1</ele>
        <time>2020-06-09T01:10:40Z</time>
      </trkpt>
      <trkpt lat="44.81477" lon="1.14963">
        <ele>104.1</ele>
        <time>2020-06-09T01:11:06Z</time>
      </trkpt>
      <trkpt lat="44.81488" lon="1.14933">
        <ele>106</ele>
        <time>2020-06-09T01:11:18Z</time>
      </trkpt>
      <trkpt lat="44.81479" lon="1.1485">
        <ele>110.3</ele>
        <time>2020-06-09T01:11:48Z</time>
      </trkpt>
      <trkpt lat="44.81491" lon="1.14809">
        <ele>115.5</ele>
        <time>2020-06-09T01:12:03Z</time>
      </trkpt>
      <trkpt lat="44.81527" lon="1.14781">
        <ele>128.8</ele>
        <time>2020-06-09T01:12:24Z</time>
      </trkpt>
      <trkpt lat="44.81541" lon="1.14682">
        <ele>150.7</ele>
        <time>2020-06-09T01:13:00Z</time>
      </trkpt>
      <trkpt lat="44.81573" lon="1.14719">
        <ele>151.3</ele>
        <time>2020-06-09T01:13:21Z</time>
      </trkpt>
      <trkpt lat="44.81613" lon="1.14654">
        <ele>169.6</ele>
        <time>2020-06-09T01:13:51Z</time>
      </trkpt>
      <trkpt lat="44.81615" lon="1.14714">
        <ele>160.3</ele>
        <time>2020-06-09T01:14:12Z</time>
      </trkpt>
      <trkpt lat="44.8163" lon="1.14695">
        <ele>165.3</ele>
        <time>2020-06-09T01:14:23Z</time>
      </trkpt>
      <trkpt lat="44.81642" lon="1.14729">
        <ele>163.1</ele>
        <time>2020-06-09T01:14:36Z</time>
      </trkpt>
      <trkpt lat="44.81715" lon="1.14712">
        <ele>184.3</ele>
        <time>2020-06-09T01:15:13Z</time>
      </trkpt>
      <trkpt lat="44.81767" lon="1.14663">
        <ele>201.4</ele>
        <time>2020-06-09T01:15:44Z</time>
      </trkpt>
      <trkpt lat="44.81926" lon="1.1462">
        <ele>215</ele>
        <time>2020-06-09T01:17:05Z</time>
      </trkpt>
      <trkpt lat="44.81848" lon="1.14543">
        <ele>217.5</ele>
        <time>2020-06-09T01:17:53Z</time>
      </trkpt>
      <trkpt lat="44.81857" lon="1.14461">
        <ele>214.7</ele>
        <time>2020-06-09T01:18:22Z</time>
      </trkpt>
      <trkpt lat="44.81772" lon="1.14418">
        <ele>202.7</ele>
        <time>2020-06-09T01:19:08Z</time>
      </trkpt>
      <trkpt lat="44.81738" lon="1.1448">
        <ele>199</ele>
        <time>2020-06-09T01:19:35Z</time>
      </trkpt>
      <trkpt lat="44.81674" lon="1.14534">
        <ele>187.2</ele>
        <time>2020-06-09T01:20:13Z</time>
      </trkpt>
      <trkpt lat="44.81645" lon="1.14534">
        <ele>186.3</ele>
        <time>2020-06-09T01:20:27Z</time>
      </trkpt>
      <trkpt lat="44.81617" lon="1.14399">
        <ele>192.7</ele>
        <time>2020-06-09T01:21:17Z</time>
      </trkpt>
      <trkpt lat="44.81645" lon="1.14322">
        <ele>198.5</ele>
        <time>2020-06-09T01:21:48Z</time>
      </trkpt>
      <trkpt lat="44.8162" lon="1.14214">
        <ele>208.5</ele>
        <time>2020-06-09T01:22:28Z</time>
      </trkpt>
      <trkpt lat="44.81568" lon="1.14178">
        <ele>204.4</ele>
        <time>2020-06-09T01:22:57Z</time>
      </trkpt>
      <trkpt lat="44.81518" lon="1.14118">
        <ele>189</ele>
        <time>2020-06-09T01:23:30Z</time>
      </trkpt>
      <trkpt lat="44.81473" lon="1.14103">
        <ele>178</ele>
        <time>2020-06-09T01:23:53Z</time>
      </trkpt>
      <trkpt lat="44.81426" lon="1.14015">
        <ele>172.8</ele>
        <time>2020-06-09T01:24:32Z</time>
      </trkpt>
      <trkpt lat="44.81583" lon="1.1385">
        <ele>175.4</ele>
        <time>2020-06-09T01:26:10Z</time>
      </trkpt>
      <trkpt lat="44.81618" lon="1.13762">
        <ele>168.4</ele>
        <time>2020-06-09T01:26:46Z</time>
      </trkpt>
      <trkpt lat="44.81655" lon="1.13742">
        <ele>166.3</ele>
        <time>2020-06-09T01:27:06Z</time>
      </trkpt>
      <trkpt lat="44.81664" lon="1.13695">
        <ele>174.6</ele>
        <time>2020-06-09T01:27:23Z</time>
      </trkpt>
      <trkpt lat="44.81712" lon="1.13652">
        <ele>179.5</ele>
        <time>2020-06-09T01:27:52Z</time>
      </trkpt>
      <trkpt lat="44.81776" lon="1.13543">
        <ele>182.6</ele>
        <time>2020-06-09T01:28:42Z</time>
      </trkpt>
      <trkpt lat="44.81773" lon="1.13498">
        <ele>183.7</ele>
        <time>2020-06-09T01:28:58Z</time>
      </trkpt>
      <trkpt lat="44.81785" lon="1.1344">
        <ele>177.9</ele>
        <time>2020-06-09T01:29:19Z</time>
      </trkpt>
      <trkpt lat="44.81778" lon="1.13367">
        <ele>174.3</ele>
        <time>2020-06-09T01:29:46Z</time>
      </trkpt>
      <trkpt lat="44.81793" lon="1.13333">
        <ele>171.4</ele>
        <time>2020-06-09T01:30:00Z</time>
      </trkpt>
      <trkpt lat="44.81793" lon="1.13276">
        <ele>173.8</ele>
        <time>2020-06-09T01:30:20Z</time>
      </trkpt>
      <trkpt lat="44.81819" lon="1.1316">
        <ele>184.6</ele>
        <time>2020-06-09T01:31:03Z</time>
      </trkpt>
      <trkpt lat="44.81836" lon="1.13014">
        <ele>203.8</ele>
        <time>2020-06-09T01:31:56Z</time>
      </trkpt>
      <trkpt lat="44.81825" lon="1.12939">
        <ele>202.2</ele>
        <time>2020-06-09T01:32:23Z</time>
      </trkpt>
      <trkpt lat="44.81874" lon="1.12902">
        <ele>199.6</ele>
        <time>2020-06-09T01:32:51Z</time>
      </trkpt>
      <trkpt lat="44.81887" lon="1.12793">
        <ele>191.3</ele>
        <time>2020-06-09T01:33:30Z</time>
      </trkpt>
      <trkpt lat="44.81884" lon="1.12701">
        <ele>184.7</ele>
        <time>2020-06-09T01:34:03Z</time>
      </trkpt>
      <trkpt lat="44.81983" lon="1.12565">
        <ele>183.8</ele>
        <time>2020-06-09T01:35:12Z</time>
      </trkpt>
      <trkpt lat="44.81976" lon="1.12467">
        <ele>170</ele>
        <time>2020-06-09T01:35:47Z</time>
      </trkpt>
      <trkpt lat="44.82011" lon="1.12441">
        <ele>172.7</ele>
        <time>2020-06-09T01:36:07Z</time>
      </trkpt>
      <trkpt lat="44.82029" lon="1.12355">
        <ele>157.4</ele>
        <time>2020-06-09T01:36:38Z</time>
      </trkpt>
      <trkpt lat="44.82067" lon="1.12258">
        <ele>138.8</ele>
        <time>2020-06-09T01:37:18Z</time>
      </trkpt>
      <trkpt lat="44.82139" lon="1.12207">
        <ele>143.7</ele>
        <time>2020-06-09T01:37:58Z</time>
      </trkpt>
      <trkpt lat="44.82239" lon="1.12166">
        <ele>142.1</ele>
        <time>2020-06-09T01:38:50Z</time>
      </trkpt>
      <trkpt lat="44.82317" lon="1.12188">
        <ele>145.4</ele>
        <time>2020-06-09T01:39:30Z</time>
      </trkpt>
      <trkpt lat="44.82371" lon="1.12158">
        <ele>129.1</ele>
        <time>2020-06-09T01:39:59Z</time>
      </trkpt>
      <trkpt lat="44.82462" lon="1.12139">
        <ele>117.6</ele>
        <time>2020-06-09T01:40:45Z</time>
      </trkpt>
      <trkpt lat="44.82494" lon="1.12042">
        <ele>98.8</ele>
        <time>2020-06-09T01:41:23Z</time>
      </trkpt>
      <trkpt lat="44.82564" lon="1.11929">
        <ele>87.6</ele>
        <time>2020-06-09T01:42:16Z</time>
      </trkpt>
      <trkpt lat="44.82596" lon="1.11798">
        <ele>77.7</ele>
        <time>2020-06-09T01:43:05Z</time>
      </trkpt>
      <trkpt lat="44.82663" lon="1.11742">
        <ele>73.6</ele>
        <time>2020-06-09T01:43:44Z</time>
      </trkpt>
      <trkpt lat="44.82554" lon="1.11583">
        <ele>84.2</ele>
        <time>2020-06-09T01:45:03Z</time>
      </trkpt>
      <trkpt lat="44.8244" lon="1.11592">
        <ele>95</ele>
        <time>2020-06-09T01:46:00Z</time>
      </trkpt>
      <trkpt lat="44.82379" lon="1.11559">
        <ele>105.6</ele>
        <time>2020-06-09T01:46:33Z</time>
      </trkpt>
      <trkpt lat="44.8242" lon="1.11532">
        <ele>102.8</ele>
        <time>2020-06-09T01:46:55Z</time>
      </trkpt>
      <trkpt lat="44.82382" lon="1.11426">
        <ele>113.3</ele>
        <time>2020-06-09T01:47:38Z</time>
      </trkpt>
      <trkpt lat="44.82332" lon="1.11407">
        <ele>114.7</ele>
        <time>2020-06-09T01:48:04Z</time>
      </trkpt>
      <trkpt lat="44.82301" lon="1.11343">
        <ele>111.8</ele>
        <time>2020-06-09T01:48:31Z</time>
      </trkpt>
      <trkpt lat="44.82041" lon="1.1154">
        <ele>115.9</ele>
        <time>2020-06-09T01:50:59Z</time>
      </trkpt>
      <trkpt lat="44.81925" lon="1.11512">
        <ele>122.6</ele>
        <time>2020-06-09T01:51:58Z</time>
      </trkpt>
      <trkpt lat="44.81733" lon="1.11347">
        <ele>142.2</ele>
        <time>2020-06-09T01:53:50Z</time>
      </trkpt>
      <trkpt lat="44.81688" lon="1.11324">
        <ele>142.9</ele>
        <time>2020-06-09T01:54:14Z</time>
      </trkpt>
      <trkpt lat="44.81601" lon="1.11223">
        <ele>149.5</ele>
        <time>2020-06-09T01:55:10Z</time>
      </trkpt>
      <trkpt lat="44.81543" lon="1.11182">
        <ele>145.7</ele>
        <time>2020-06-09T01:55:43Z</time>
      </trkpt>
      <trkpt lat="44.81409" lon="1.1115">
        <ele>140.5</ele>
        <time>2020-06-09T01:56:51Z</time>
      </trkpt>
      <trkpt lat="44.81287" lon="1.11083">
        <ele>148.1</ele>
        <time>2020-06-09T01:57:57Z</time>
      </trkpt>
      <trkpt lat="44.81324" lon="1.10978">
        <ele>159.1</ele>
        <time>2020-06-09T01:58:38Z</time>
      </trkpt>
      <trkpt lat="44.81301" lon="1.10748">
        <ele>157.6</ele>
        <time>2020-06-09T02:00:01Z</time>
      </trkpt>
      <trkpt lat="44.81321" lon="1.10611">
        <ele>158.3</ele>
        <time>2020-06-09T02:00:50Z</time>
      </trkpt>
      <trkpt lat="44.8131" lon="1.10354">
        <ele>171.4</ele>
        <time>2020-06-09T02:02:22Z</time>
      </trkpt>
      <trkpt lat="44.81344" lon="1.1027">
        <ele>167.5</ele>
        <time>2020-06-09T02:02:56Z</time>
      </trkpt>
      <trkpt lat="44.81341" lon="1.10203">
        <ele>165.4</ele>
        <time>2020-06-09T02:03:20Z</time>
      </trkpt>
      <trkpt lat="44.81391" lon="1.10126">
        <ele>168.1</ele>
        <time>2020-06-09T02:03:57Z</time>
      </trkpt>
      <trkpt lat="44.81353" lon="1.10038">
        <ele>160.9</ele>
        <time>2020-06-09T02:04:33Z</time>
      </trkpt>
      <trkpt lat="44.81376" lon="1.10002">
        <ele>161.7</ele>
        <time>2020-06-09T02:04:51Z</time>
      </trkpt>
      <trkpt lat="44.81418" lon="1.0974">
        <ele>148.9</ele>
        <time>2020-06-09T02:06:26Z</time>
      </trkpt>
      <trkpt lat="44.81461" lon="1.09669">
        <ele>137.7</ele>
        <time>2020-06-09T02:06:59Z</time>
      </trkpt>
      <trkpt lat="44.81545" lon="1.09648">
        <ele>135</ele>
        <time>2020-06-09T02:07:42Z</time>
      </trkpt>
      <trkpt lat="44.81462" lon="1.09491">
        <ele>105</ele>
        <time>2020-06-09T02:08:51Z</time>
      </trkpt>
      <trkpt lat="44.81383" lon="1.09474">
        <ele>109.2</ele>
        <time>2020-06-09T02:09:31Z</time>
      </trkpt>
      <trkpt lat="44.814" lon="1.09375">
        <ele>115.9</ele>
        <time>2020-06-09T02:10:07Z</time>
      </trkpt>
      <trkpt lat="44.81249" lon="1.09397">
        <ele>117.2</ele>
        <time>2020-06-09T02:11:23Z</time>
      </trkpt>
      <trkpt lat="44.81275" lon="1.09332">
        <ele>114.8</ele>
        <time>2020-06-09T02:11:50Z</time>
      </trkpt>
      <trkpt lat="44.81251" lon="1.0916">
        <ele>135</ele>
        <time>2020-06-09T02:12:52Z</time>
      </trkpt>
      <trkpt lat="44.81283" lon="1.09105">
        <ele>142.8</ele>
        <time>2020-06-09T02:13:17Z</time>
      </trkpt>
      <trkpt lat="44.81301" lon="1.0903">
        <ele>154.6</ele>
        <time>2020-06-09T02:13:46Z</time>
      </trkpt>
      <trkpt lat="44.81338" lon="1.09062">
        <ele>148.5</ele>
        <time>2020-06-09T02:14:07Z</time>
      </trkpt>
      <trkpt lat="44.81357" lon="1.0904">
        <ele>152.5</ele>
        <time>2020-06-09T02:14:20Z</time>
      </trkpt>
      <trkpt lat="44.81332" lon="1.08987">
        <ele>159.6</ele>
        <time>2020-06-09T02:14:42Z</time>
      </trkpt>
      <trkpt lat="44.8144" lon="1.08646">
        <ele>190.2</ele>
        <time>2020-06-09T02:16:55Z</time>
      </trkpt>
      <trkpt lat="44.81504" lon="1.08575">
        <ele>195.6</ele>
        <time>2020-06-09T02:17:35Z</time>
      </trkpt>
      <trkpt lat="44.81539" lon="1.0845">
        <ele>205.3</ele>
        <time>2020-06-09T02:18:23Z</time>
      </trkpt>
      <trkpt lat="44.81476" lon="1.0821">
        <ele>223.3</ele>
        <time>2020-06-09T02:19:54Z</time>
      </trkpt>
      <trkpt lat="44.81528" lon="1.08197">
        <ele>220.7</ele>
        <time>2020-06-09T02:20:20Z</time>
      </trkpt>
      <trkpt lat="44.81589" lon="1.08156">
        <ele>225.6</ele>
        <time>2020-06-09T02:20:54Z</time>
      </trkpt>
      <trkpt lat="44.81886" lon="1.08107">
        <ele>214.4</ele>
        <time>2020-06-09T02:23:24Z</time>
      </trkpt>
      <trkpt lat="44.82003" lon="1.07931">
        <ele>223.8</ele>
        <time>2020-06-09T02:24:50Z</time>
      </trkpt>
      <trkpt lat="44.82035" lon="1.07822">
        <ele>227.4</ele>
        <time>2020-06-09T02:25:31Z</time>
      </trkpt>
      <trkpt lat="44.82231" lon="1.07682">
        <ele>222.7</ele>
        <time>2020-06-09T02:27:21Z</time>
      </trkpt>
      <trkpt lat="44.82301" lon="1.07684">
        <ele>221.5</ele>
        <time>2020-06-09T02:27:56Z</time>
      </trkpt>
      <trkpt lat="44.82345" lon="1.07641">
        <ele>221.4</ele>
        <time>2020-06-09T02:28:23Z</time>
      </trkpt>
      <trkpt lat="44.82417" lon="1.07688">
        <ele>213.9</ele>
        <time>2020-06-09T02:29:03Z</time>
      </trkpt>
      <trkpt lat="44.82421" lon="1.07624">
        <ele>215.6</ele>
        <time>2020-06-09T02:29:26Z</time>
      </trkpt>
      <trkpt lat="44.82455" lon="1.07568">
        <ele>214.6</ele>
        <time>2020-06-09T02:29:52Z</time>
      </trkpt>
      <trkpt lat="44.82487" lon="1.07594">
        <ele>211.2</ele>
        <time>2020-06-09T02:30:10Z</time>
      </trkpt>
      <trkpt lat="44.82625" lon="1.07277">
        <ele>204.3</ele>
        <time>2020-06-09T02:32:22Z</time>
      </trkpt>
      <trkpt lat="44.82613" lon="1.07186">
        <ele>204.1</ele>
        <time>2020-06-09T02:32:55Z</time>
      </trkpt>
      <trkpt lat="44.82685" lon="1.0721">
        <ele>194.1</ele>
        <time>2020-06-09T02:33:32Z</time>
      </trkpt>
      <trkpt lat="44.82764" lon="1.07201">
        <ele>180.1</ele>
        <time>2020-06-09T02:34:12Z</time>
      </trkpt>
      <trkpt lat="44.82854" lon="1.07268">
        <ele>168.3</ele>
        <time>2020-06-09T02:35:03Z</time>
      </trkpt>
      <trkpt lat="44.82905" lon="1.07268">
        <ele>161.5</ele>
        <time>2020-06-09T02:35:28Z</time>
      </trkpt>
      <trkpt lat="44.8293" lon="1.07133">
        <ele>151.8</ele>
        <time>2020-06-09T02:36:18Z</time>
      </trkpt>
      <trkpt lat="44.82881" lon="1.07098">
        <ele>158.7</ele>
        <time>2020-06-09T02:36:45Z</time>
      </trkpt>
      <trkpt lat="44.82934" lon="1.07056">
        <ele>138.1</ele>
        <time>2020-06-09T02:37:16Z</time>
      </trkpt>
      <trkpt lat="44.83003" lon="1.0706">
        <ele>122.3</ele>
        <time>2020-06-09T02:37:50Z</time>
      </trkpt>
      <trkpt lat="44.82946" lon="1.07011">
        <ele>125</ele>
        <time>2020-06-09T02:38:24Z</time>
      </trkpt>
      <trkpt lat="44.83018" lon="1.07036">
        <ele>114</ele>
        <time>2020-06-09T02:39:01Z</time>
      </trkpt>
      <trkpt lat="44.83057" lon="1.06993">
        <ele>101.3</ele>
        <time>2020-06-09T02:39:26Z</time>
      </trkpt>
      <trkpt lat="44.83132" lon="1.0698">
        <ele>96.4</ele>
        <time>2020-06-09T02:40:03Z</time>
      </trkpt>
      <trkpt lat="44.83185" lon="1.07004">
        <ele>95</ele>
        <time>2020-06-09T02:40:31Z</time>
      </trkpt>
      <trkpt lat="44.83254" lon="1.07105">
        <ele>102.3</ele>
        <time>2020-06-09T02:41:21Z</time>
      </trkpt>
      <trkpt lat="44.83339" lon="1.07266">
        <ele>104.7</ele>
        <time>2020-06-09T02:42:32Z</time>
      </trkpt>
      <trkpt lat="44.83409" lon="1.0724">
        <ele>81.4</ele>
        <time>2020-06-09T02:43:09Z</time>
      </trkpt>
      <trkpt lat="44.83468" lon="1.07156">
        <ele>79.3</ele>
        <time>2020-06-09T02:43:50Z</time>
      </trkpt>
      <trkpt lat="44.83503" lon="1.07064">
        <ele>95</ele>
        <time>2020-06-09T02:44:28Z</time>
      </trkpt>
      <trkpt lat="44.83537" lon="1.07045">
        <ele>89.9</ele>
        <time>2020-06-09T02:44:46Z</time>
      </trkpt>
      <trkpt lat="44.8362" lon="1.06893">
        <ele>102</ele>
        <time>2020-06-09T02:45:54Z</time>
      </trkpt>
      <trkpt lat="44.84235" lon="1.06757">
        <ele>60.6</ele>
        <time>2020-06-09T02:51:05Z</time>
      </trkpt>
      <trkpt lat="44.84299" lon="1.06328">
        <ele>61</ele>
        <time>2020-06-09T02:53:41Z</time>
      </trkpt>
      <trkpt lat="44.84301" lon="1.06174">
        <ele>59.2</ele>
        <time>2020-06-09T02:54:36Z</time>
      </trkpt>
      <trkpt lat="44.84374" lon="1.06081">
        <ele>60.2</ele>
        <time>2020-06-09T02:55:25Z</time>
      </trkpt>
      <trkpt lat="44.84477" lon="1.05923">
        <ele>61.8</ele>
        <time>2020-06-09T02:56:41Z</time>
      </trkpt>
      <trkpt lat="44.8474" lon="1.05581">
        <ele>62.9</ele>
        <time>2020-06-09T02:59:40Z</time>
      </trkpt>
      <trkpt lat="44.84821" lon="1.05455">
        <ele>58.7</ele>
        <time>2020-06-09T03:00:40Z</time>
      </trkpt>
      <trkpt lat="44.84877" lon="1.0533">
        <ele>59.2</ele>
        <time>2020-06-09T03:01:33Z</time>
      </trkpt>
      <trkpt lat="44.84985" lon="1.05169">
        <ele>60</ele>
        <time>2020-06-09T03:02:51Z</time>
      </trkpt>
      <trkpt lat="44.85081" lon="1.04998">
        <ele>61.9</ele>
        <time>2020-06-09T03:04:09Z</time>
      </trkpt>
      <trkpt lat="44.8514" lon="1.04914">
        <ele>61</ele>
        <time>2020-06-09T03:04:51Z</time>
      </trkpt>
      <trkpt lat="44.85327" lon="1.045">
        <ele>60.1</ele>
        <time>2020-06-09T03:07:45Z</time>
      </trkpt>
      <trkpt lat="44.8539" lon="1.04302">
        <ele>58.8</ele>
        <time>2020-06-09T03:09:02Z</time>
      </trkpt>
      <trkpt lat="44.854" lon="1.04242">
        <ele>61.2</ele>
        <time>2020-06-09T03:09:24Z</time>
      </trkpt>
      <trkpt lat="44.85481" lon="1.04008">
        <ele>61.3</ele>
        <time>2020-06-09T03:10:56Z</time>
      </trkpt>
      <trkpt lat="44.85543" lon="1.03968">
        <ele>60.6</ele>
        <time>2020-06-09T03:11:30Z</time>
      </trkpt>
      <trkpt lat="44.85566" lon="1.03927">
        <ele>60.6</ele>
        <time>2020-06-09T03:11:49Z</time>
      </trkpt>
      <trkpt lat="44.85515" lon="1.03942">
        <ele>59.9</ele>
        <time>2020-06-09T03:12:15Z</time>
      </trkpt>
      <trkpt lat="44.85518" lon="1.03905">
        <ele>59.3</ele>
        <time>2020-06-09T03:12:28Z</time>
      </trkpt>
      <trkpt lat="44.85556" lon="1.03796">
        <ele>58.8</ele>
        <time>2020-06-09T03:13:11Z</time>
      </trkpt>
      <trkpt lat="44.85994" lon="1.03869">
        <ele>60.6</ele>
        <time>2020-06-09T03:16:52Z</time>
      </trkpt>
      <trkpt lat="44.86073" lon="1.03927">
        <ele>60.8</ele>
        <time>2020-06-09T03:17:37Z</time>
      </trkpt>
      <trkpt lat="44.86103" lon="1.03978">
        <ele>60.3</ele>
        <time>2020-06-09T03:18:00Z</time>
      </trkpt>
      <trkpt lat="44.86141" lon="1.03985">
        <ele>60.2</ele>
        <time>2020-06-09T03:18:19Z</time>
      </trkpt>
      <trkpt lat="44.86173" lon="1.03951">
        <ele>60.7</ele>
        <time>2020-06-09T03:18:39Z</time>
      </trkpt>
      <trkpt lat="44.86207" lon="1.03959">
        <ele>61.2</ele>
        <time>2020-06-09T03:18:56Z</time>
      </trkpt>
      <trkpt lat="44.86226" lon="1.03905">
        <ele>61.7</ele>
        <time>2020-06-09T03:19:18Z</time>
      </trkpt>
      <trkpt lat="44.86403" lon="1.03938">
        <ele>62.6</ele>
        <time>2020-06-09T03:20:47Z</time>
      </trkpt>
      <trkpt lat="44.86684" lon="1.04283">
        <ele>62.7</ele>
        <time>2020-06-09T03:23:54Z</time>
      </trkpt>
      <trkpt lat="44.86771" lon="1.04264">
        <ele>61.6</ele>
        <time>2020-06-09T03:24:38Z</time>
      </trkpt>
      <trkpt lat="44.86817" lon="1.04264">
        <ele>62.6</ele>
        <time>2020-06-09T03:25:01Z</time>
      </trkpt>
      <trkpt lat="44.86947" lon="1.04313">
        <ele>67.2</ele>
        <time>2020-06-09T03:26:08Z</time>
      </trkpt>
      <trkpt lat="44.86943" lon="1.04401">
        <ele>67.7</ele>
        <time>2020-06-09T03:26:39Z</time>
      </trkpt>
      <trkpt lat="44.86999" lon="1.04431">
        <ele>73.9</ele>
        <time>2020-06-09T03:27:09Z</time>
      </trkpt>
      <trkpt lat="44.87125" lon="1.0418">
        <ele>84.1</ele>
        <time>2020-06-09T03:28:58Z</time>
      </trkpt>
      <trkpt lat="44.87189" lon="1.04157">
        <ele>89.2</ele>
        <time>2020-06-09T03:29:31Z</time>
      </trkpt>
      <trkpt lat="44.87154" lon="1.04219">
        <ele>93</ele>
        <time>2020-06-09T03:30:00Z</time>
      </trkpt>
      <trkpt lat="44.87156" lon="1.04238">
        <ele>95.8</ele>
        <time>2020-06-09T03:30:06Z</time>
      </trkpt>
      <trkpt lat="44.87206" lon="1.04236">
        <ele>104.2</ele>
        <time>2020-06-09T03:30:31Z</time>
      </trkpt>
      <trkpt lat="44.8734" lon="1.04322">
        <ele>144.9</ele>
        <time>2020-06-09T03:31:45Z</time>
      </trkpt>
      <trkpt lat="44.87419" lon="1.04446">
        <ele>171.4</ele>
        <time>2020-06-09T03:32:44Z</time>
      </trkpt>
      <trkpt lat="44.87452" lon="1.04448">
        <ele>172.8</ele>
        <time>2020-06-09T03:33:01Z</time>
      </trkpt>
      <trkpt lat="44.87575" lon="1.04489">
        <ele>175.3</ele>
        <time>2020-06-09T03:34:04Z</time>
      </trkpt>
      <trkpt lat="44.87685" lon="1.04448">
        <ele>174.6</ele>
        <time>2020-06-09T03:35:01Z</time>
      </trkpt>
      <trkpt lat="44.87768" lon="1.04448">
        <ele>169</ele>
        <time>2020-06-09T03:35:42Z</time>
      </trkpt>
      <trkpt lat="44.87896" lon="1.04517">
        <ele>176.8</ele>
        <time>2020-06-09T03:36:51Z</time>
      </trkpt>
      <trkpt lat="44.88031" lon="1.04624">
        <ele>189.8</ele>
        <time>2020-06-09T03:38:08Z</time>
      </trkpt>
      <trkpt lat="44.88165" lon="1.04715">
        <ele>193.8</ele>
        <time>2020-06-09T03:39:23Z</time>
      </trkpt>
      <trkpt lat="44.8839" lon="1.0465">
        <ele>198.1</ele>
        <time>2020-06-09T03:41:18Z</time>
      </trkpt>
      <trkpt lat="44.88463" lon="1.04732">
        <ele>206</ele>
        <time>2020-06-09T03:42:05Z</time>
      </trkpt>
      <trkpt lat="44.88527" lon="1.04757">
        <ele>213.2</ele>
        <time>2020-06-09T03:42:38Z</time>
      </trkpt>
      <trkpt lat="44.88641" lon="1.04897">
        <ele>208</ele>
        <time>2020-06-09T03:43:53Z</time>
      </trkpt>
      <trkpt lat="44.88728" lon="1.04955">
        <ele>208.9</ele>
        <time>2020-06-09T03:44:42Z</time>
      </trkpt>
      <trkpt lat="44.88842" lon="1.05">
        <ele>209.7</ele>
        <time>2020-06-09T03:45:41Z</time>
      </trkpt>
      <trkpt lat="44.88953" lon="1.05008">
        <ele>208.1</ele>
        <time>2020-06-09T03:46:36Z</time>
      </trkpt>
      <trkpt lat="44.89195" lon="1.04933">
        <ele>196.2</ele>
        <time>2020-06-09T03:48:40Z</time>
      </trkpt>
      <trkpt lat="44.89325" lon="1.04848">
        <ele>201.9</ele>
        <time>2020-06-09T03:49:52Z</time>
      </trkpt>
      <trkpt lat="44.89407" lon="1.04839">
        <ele>203</ele>
        <time>2020-06-09T03:50:33Z</time>
      </trkpt>
      <trkpt lat="44.89433" lon="1.04912">
        <ele>201.6</ele>
        <time>2020-06-09T03:51:02Z</time>
      </trkpt>
      <trkpt lat="44.89532" lon="1.0482">
        <ele>193.4</ele>
        <time>2020-06-09T03:52:01Z</time>
      </trkpt>
      <trkpt lat="44.89725" lon="1.04809">
        <ele>185.6</ele>
        <time>2020-06-09T03:53:38Z</time>
      </trkpt>
      <trkpt lat="44.89716" lon="1.04429">
        <ele>184.9</ele>
        <time>2020-06-09T03:55:53Z</time>
      </trkpt>
      <trkpt lat="44.89837" lon="1.04217">
        <ele>189.2</ele>
        <time>2020-06-09T03:57:29Z</time>
      </trkpt>
      <trkpt lat="44.89962" lon="1.04116">
        <ele>185.8</ele>
        <time>2020-06-09T03:58:42Z</time>
      </trkpt>
      <trkpt lat="44.9007" lon="1.04129">
        <ele>185.4</ele>
        <time>2020-06-09T03:59:36Z</time>
      </trkpt>
      <trkpt lat="44.90131" lon="1.04163">
        <ele>182</ele>
        <time>2020-06-09T04:00:09Z</time>
      </trkpt>
      <trkpt lat="44.90148" lon="1.04148">
        <ele>180.8</ele>
        <time>2020-06-09T04:00:19Z</time>
      </trkpt>
      <trkpt lat="44.90204" lon="1.04163">
        <ele>177.7</ele>
        <time>2020-06-09T04:00:47Z</time>
      </trkpt>
      <trkpt lat="44.90205" lon="1.04221">
        <ele>178.3</ele>
        <time>2020-06-09T04:01:08Z</time>
      </trkpt>
      <trkpt lat="44.90316" lon="1.04077">
        <ele>172.5</ele>
        <time>2020-06-09T04:02:23Z</time>
      </trkpt>
      <trkpt lat="44.90442" lon="1.04058">
        <ele>160.8</ele>
        <time>2020-06-09T04:03:27Z</time>
      </trkpt>
      <trkpt lat="44.90526" lon="1.04056">
        <ele>158.8</ele>
        <time>2020-06-09T04:04:09Z</time>
      </trkpt>
      <trkpt lat="44.90658" lon="1.03938">
        <ele>182.8</ele>
        <time>2020-06-09T04:05:27Z</time>
      </trkpt>
      <trkpt lat="44.90699" lon="1.03835">
        <ele>184.2</ele>
        <time>2020-06-09T04:06:09Z</time>
      </trkpt>
      <trkpt lat="44.90695" lon="1.03712">
        <ele>181.2</ele>
        <time>2020-06-09T04:06:52Z</time>
      </trkpt>
      <trkpt lat="44.90638" lon="1.03521">
        <ele>178.5</ele>
        <time>2020-06-09T04:08:06Z</time>
      </trkpt>
      <trkpt lat="44.90623" lon="1.03339">
        <ele>181.1</ele>
        <time>2020-06-09T04:09:11Z</time>
      </trkpt>
      <trkpt lat="44.90699" lon="1.03337">
        <ele>196.7</ele>
        <time>2020-06-09T04:09:49Z</time>
      </trkpt>
      <trkpt lat="44.90711" lon="1.03275">
        <ele>200</ele>
        <time>2020-06-09T04:10:12Z</time>
      </trkpt>
      <trkpt lat="44.90985" lon="1.03397">
        <ele>176.6</ele>
        <time>2020-06-09T04:12:35Z</time>
      </trkpt>
      <trkpt lat="44.9104" lon="1.0338">
        <ele>172.4</ele>
        <time>2020-06-09T04:13:03Z</time>
      </trkpt>
      <trkpt lat="44.91183" lon="1.03139">
        <ele>168.8</ele>
        <time>2020-06-09T04:14:55Z</time>
      </trkpt>
      <trkpt lat="44.91246" lon="1.03112">
        <ele>165.9</ele>
        <time>2020-06-09T04:15:28Z</time>
      </trkpt>
      <trkpt lat="44.9135" lon="1.03114">
        <ele>155.3</ele>
        <time>2020-06-09T04:16:20Z</time>
      </trkpt>
      <trkpt lat="44.91429" lon="1.03202">
        <ele>150.8</ele>
        <time>2020-06-09T04:17:10Z</time>
      </trkpt>
      <trkpt lat="44.91632" lon="1.03105">
        <ele>142.8</ele>
        <time>2020-06-09T04:18:57Z</time>
      </trkpt>
      <trkpt lat="44.91646" lon="1.03052">
        <ele>140.9</ele>
        <time>2020-06-09T04:19:18Z</time>
      </trkpt>
      <trkpt lat="44.91638" lon="1.03002">
        <ele>139.1</ele>
        <time>2020-06-09T04:19:36Z</time>
      </trkpt>
      <trkpt lat="44.9173" lon="1.02936">
        <ele>137.3</ele>
        <time>2020-06-09T04:20:27Z</time>
      </trkpt>
      <trkpt lat="44.91819" lon="1.02985">
        <ele>140.8</ele>
        <time>2020-06-09T04:21:15Z</time>
      </trkpt>
      <trkpt lat="44.91869" lon="1.02983">
        <ele>146.8</ele>
        <time>2020-06-09T04:21:40Z</time>
      </trkpt>
      <trkpt lat="44.91933" lon="1.03002">
        <ele>155.4</ele>
        <time>2020-06-09T04:22:13Z</time>
      </trkpt>
      <trkpt lat="44.91998" lon="1.02942">
        <ele>160.4</ele>
        <time>2020-06-09T04:22:52Z</time>
      </trkpt>
      <trkpt lat="44.92097" lon="1.02901">
        <ele>172</ele>
        <time>2020-06-09T04:23:43Z</time>
      </trkpt>
      <trkpt lat="44.92138" lon="1.02904">
        <ele>178.8</ele>
        <time>2020-06-09T04:24:04Z</time>
      </trkpt>
      <trkpt lat="44.92152" lon="1.03007">
        <ele>185</ele>
        <time>2020-06-09T04:24:41Z</time>
      </trkpt>
      <trkpt lat="44.92196" lon="1.03165">
        <ele>201.5</ele>
        <time>2020-06-09T04:25:41Z</time>
      </trkpt>
      <trkpt lat="44.92252" lon="1.03197">
        <ele>204.9</ele>
        <time>2020-06-09T04:26:11Z</time>
      </trkpt>
      <trkpt lat="44.92299" lon="1.03174">
        <ele>204.2</ele>
        <time>2020-06-09T04:26:36Z</time>
      </trkpt>
      <trkpt lat="44.92409" lon="1.03052">
        <ele>191</ele>
        <time>2020-06-09T04:27:46Z</time>
      </trkpt>
      <trkpt lat="44.92413" lon="1.02974">
        <ele>186.2</ele>
        <time>2020-06-09T04:28:14Z</time>
      </trkpt>
      <trkpt lat="44.92383" lon="1.02897">
        <ele>185.7</ele>
        <time>2020-06-09T04:28:45Z</time>
      </trkpt>
      <trkpt lat="44.92521" lon="1.02921">
        <ele>187.9</ele>
        <time>2020-06-09T04:29:55Z</time>
      </trkpt>
      <trkpt lat="44.92673" lon="1.02897">
        <ele>186.1</ele>
        <time>2020-06-09T04:31:11Z</time>
      </trkpt>
      <trkpt lat="44.92759" lon="1.02944">
        <ele>189.1</ele>
        <time>2020-06-09T04:31:57Z</time>
      </trkpt>
      <trkpt lat="44.92843" lon="1.02964">
        <ele>178.6</ele>
        <time>2020-06-09T04:32:40Z</time>
      </trkpt>
      <trkpt lat="44.92942" lon="1.02878">
        <ele>168</ele>
        <time>2020-06-09T04:33:38Z</time>
      </trkpt>
      <trkpt lat="44.93107" lon="1.02818">
        <ele>175.3</ele>
        <time>2020-06-09T04:35:04Z</time>
      </trkpt>
      <trkpt lat="44.93271" lon="1.02667">
        <ele>176.7</ele>
        <time>2020-06-09T04:36:41Z</time>
      </trkpt>
      <trkpt lat="44.93309" lon="1.02584">
        <ele>174.4</ele>
        <time>2020-06-09T04:37:17Z</time>
      </trkpt>
      <trkpt lat="44.93297" lon="1.02507">
        <ele>165.9</ele>
        <time>2020-06-09T04:37:44Z</time>
      </trkpt>
      <trkpt lat="44.93305" lon="1.02399">
        <ele>170.1</ele>
        <time>2020-06-09T04:38:23Z</time>
      </trkpt>
      <trkpt lat="44.93344" lon="1.02397">
        <ele>174.4</ele>
        <time>2020-06-09T04:38:42Z</time>
      </trkpt>
      <trkpt lat="44.93376" lon="1.02479">
        <ele>171.1</ele>
        <time>2020-06-09T04:39:16Z</time>
      </trkpt>
      <trkpt lat="44.93481" lon="1.02468">
        <ele>160.5</ele>
        <time>2020-06-09T04:40:08Z</time>
      </trkpt>
      <trkpt lat="44.93492" lon="1.02421">
        <ele>158.6</ele>
        <time>2020-06-09T04:40:26Z</time>
      </trkpt>
      <trkpt lat="44.93484" lon="1.02363">
        <ele>157</ele>
        <time>2020-06-09T04:40:47Z</time>
      </trkpt>
      <trkpt lat="44.93517" lon="1.02247">
        <ele>135.1</ele>
        <time>2020-06-09T04:41:31Z</time>
      </trkpt>
      <trkpt lat="44.93537" lon="1.02311">
        <ele>132.6</ele>
        <time>2020-06-09T04:41:56Z</time>
      </trkpt>
      <trkpt lat="44.93555" lon="1.02326">
        <ele>126.7</ele>
        <time>2020-06-09T04:42:06Z</time>
      </trkpt>
      <trkpt lat="44.93559" lon="1.02245">
        <ele>115.7</ele>
        <time>2020-06-09T04:42:35Z</time>
      </trkpt>
      <trkpt lat="44.93615" lon="1.02208">
        <ele>90.7</ele>
        <time>2020-06-09T04:43:06Z</time>
      </trkpt>
    </trkseg>
  </trk>
</gpx>